<?xml version="1.0" encoding="UTF-8" standalone="no" ?>
<gpx xmlns="http://www.topografix.com/GPX/1/1" xmlns:xsi="http://www.w3.org/2001/XMLSchema-instance" xsi:schemaLocation="http://www.topografix.com/GPX/1/1 http://www.topografix.com/GPX/1/1/gpx.xsd" version="1.1" creator="VisuGPX - https://www.visugpx.com">
  <metadata>
    <name>Le Tour du Ballon d'Alsace en trois jours</name>
  </metadata>
  <trk>
    <name><![CDATA[Le Tour du Ballon d'Alsace en trois jours]]></name>
    <trkseg>
      <trkpt lat="47.85917" lon="6.82422">
        <ele>559.023924</ele>
        <time>2024-03-25T13:42:30.027Z</time>
      </trkpt>
      <trkpt lat="47.85907" lon="6.82458">
        <ele>559.023924</ele>
        <time>2024-03-25T13:42:59.472Z</time>
      </trkpt>
      <trkpt lat="47.85904" lon="6.82498">
        <ele>559.023924</ele>
        <time>2024-03-25T13:43:30.089Z</time>
      </trkpt>
      <trkpt lat="47.85903" lon="6.82534">
        <ele>559.023924</ele>
        <time>2024-03-25T13:43:58.461Z</time>
      </trkpt>
      <trkpt lat="47.85902" lon="6.82565">
        <ele>559.756365</ele>
        <time>2024-03-25T13:44:22.938Z</time>
      </trkpt>
      <trkpt lat="47.85901" lon="6.82604">
        <ele>562.000346</ele>
        <time>2024-03-25T13:44:54.574Z</time>
      </trkpt>
      <trkpt lat="47.85846" lon="6.82648">
        <ele>567.340883</ele>
        <time>2024-03-25T13:46:12.252Z</time>
      </trkpt>
      <trkpt lat="47.85843" lon="6.82643">
        <ele>567.672696</ele>
        <time>2024-03-25T13:46:17.133Z</time>
      </trkpt>
      <trkpt lat="47.85836" lon="6.82629">
        <ele>568.691855</ele>
        <time>2024-03-25T13:46:32.721Z</time>
      </trkpt>
      <trkpt lat="47.85835" lon="6.82627">
        <ele>568.850599</ele>
        <time>2024-03-25T13:46:35.145Z</time>
      </trkpt>
      <trkpt lat="47.85802" lon="6.82584">
        <ele>572.580699</ele>
        <time>2024-03-25T13:47:34.125Z</time>
      </trkpt>
      <trkpt lat="47.85785" lon="6.82557">
        <ele>574.969881</ele>
        <time>2024-03-25T13:48:11.033Z</time>
      </trkpt>
      <trkpt lat="47.8572" lon="6.82571">
        <ele>584.998919</ele>
        <time>2024-03-25T13:49:48.637Z</time>
      </trkpt>
      <trkpt lat="47.85677" lon="6.82544">
        <ele>592.191846</ele>
        <time>2024-03-25T13:51:10.489Z</time>
      </trkpt>
      <trkpt lat="47.85645" lon="6.82567">
        <ele>597.700943</ele>
        <time>2024-03-25T13:52:15.101Z</time>
      </trkpt>
      <trkpt lat="47.85619" lon="6.82601">
        <ele>603.011589</ele>
        <time>2024-03-25T13:53:17.402Z</time>
      </trkpt>
      <trkpt lat="47.85578" lon="6.82635">
        <ele>610.406711</ele>
        <time>2024-03-25T13:54:43.313Z</time>
      </trkpt>
      <trkpt lat="47.8556" lon="6.82653">
        <ele>613.720807</ele>
        <time>2024-03-25T13:55:20.870Z</time>
      </trkpt>
      <trkpt lat="47.85501" lon="6.82682">
        <ele>623.571326</ele>
        <time>2024-03-25T13:57:05.012Z</time>
      </trkpt>
      <trkpt lat="47.85339" lon="6.82782">
        <ele>648.426129</ele>
        <time>2024-03-25T14:01:31.788Z</time>
      </trkpt>
      <trkpt lat="47.8528" lon="6.82803">
        <ele>656.724869</ele>
        <time>2024-03-25T14:03:06.000Z</time>
      </trkpt>
      <trkpt lat="47.8525" lon="6.82821">
        <ele>661.608055</ele>
        <time>2024-03-25T14:03:59.135Z</time>
      </trkpt>
      <trkpt lat="47.85246" lon="6.82823">
        <ele>662.242502</ele>
        <time>2024-03-25T14:04:05.355Z</time>
      </trkpt>
      <trkpt lat="47.85184" lon="6.82875">
        <ele>672.760074</ele>
        <time>2024-03-25T14:05:59.025Z</time>
      </trkpt>
      <trkpt lat="47.85136" lon="6.82911">
        <ele>680.79848</ele>
        <time>2024-03-25T14:07:29.979Z</time>
      </trkpt>
      <trkpt lat="47.85119" lon="6.82891">
        <ele>684.156851</ele>
        <time>2024-03-25T14:08:05.763Z</time>
      </trkpt>
      <trkpt lat="47.85074" lon="6.83074">
        <ele>705.402516</ele>
        <time>2024-03-25T14:11:48.775Z</time>
      </trkpt>
      <trkpt lat="47.8503" lon="6.83198">
        <ele>721.255268</ele>
        <time>2024-03-25T14:14:37.278Z</time>
      </trkpt>
      <trkpt lat="47.8499" lon="6.83297">
        <ele>734.451037</ele>
        <time>2024-03-25T14:16:55.699Z</time>
      </trkpt>
      <trkpt lat="47.8495" lon="6.83346">
        <ele>743.472238</ele>
        <time>2024-03-25T14:18:26.584Z</time>
      </trkpt>
      <trkpt lat="47.84911" lon="6.83368">
        <ele>751.443946</ele>
        <time>2024-03-25T14:19:39.602Z</time>
      </trkpt>
      <trkpt lat="47.8488" lon="6.83407">
        <ele>759.121411</ele>
        <time>2024-03-25T14:20:51.104Z</time>
      </trkpt>
      <trkpt lat="47.84846" lon="6.83433">
        <ele>766.316422</ele>
        <time>2024-03-25T14:22:06.359Z</time>
      </trkpt>
      <trkpt lat="47.84776" lon="6.83505">
        <ele>783.411667</ele>
        <time>2024-03-25T14:25:03.793Z</time>
      </trkpt>
      <trkpt lat="47.8475" lon="6.83528">
        <ele>789.796604</ele>
        <time>2024-03-25T14:26:04.847Z</time>
      </trkpt>
      <trkpt lat="47.84723" lon="6.83541">
        <ele>795.858616</ele>
        <time>2024-03-25T14:27:04.145Z</time>
      </trkpt>
      <trkpt lat="47.84687" lon="6.83558">
        <ele>804.017885</ele>
        <time>2024-03-25T14:28:22.607Z</time>
      </trkpt>
      <trkpt lat="47.84638" lon="6.83594">
        <ele>815.416571</ele>
        <time>2024-03-25T14:30:12.979Z</time>
      </trkpt>
      <trkpt lat="47.84603" lon="6.83606">
        <ele>821.730238</ele>
        <time>2024-03-25T14:31:25.984Z</time>
      </trkpt>
      <trkpt lat="47.84562" lon="6.83654">
        <ele>830.84173</ele>
        <time>2024-03-25T14:33:00.480Z</time>
      </trkpt>
      <trkpt lat="47.84489" lon="6.83757">
        <ele>848.141192</ele>
        <time>2024-03-25T14:35:47.283Z</time>
      </trkpt>
      <trkpt lat="47.84429" lon="6.83853">
        <ele>861.431231</ele>
        <time>2024-03-25T14:38:15.536Z</time>
      </trkpt>
      <trkpt lat="47.84364" lon="6.83923">
        <ele>873.436918</ele>
        <time>2024-03-25T14:40:25.132Z</time>
      </trkpt>
      <trkpt lat="47.84295" lon="6.84037">
        <ele>887.323313</ele>
        <time>2024-03-25T14:43:05.153Z</time>
      </trkpt>
      <trkpt lat="47.84267" lon="6.84098">
        <ele>894.058591</ele>
        <time>2024-03-25T14:44:20.660Z</time>
      </trkpt>
      <trkpt lat="47.8419" lon="6.84184">
        <ele>907.004654</ele>
        <time>2024-03-25T14:46:39.689Z</time>
      </trkpt>
      <trkpt lat="47.84177" lon="6.84217">
        <ele>910.372581</ele>
        <time>2024-03-25T14:47:16.972Z</time>
      </trkpt>
      <trkpt lat="47.84151" lon="6.84251">
        <ele>915.006714</ele>
        <time>2024-03-25T14:48:07.796Z</time>
      </trkpt>
      <trkpt lat="47.84076" lon="6.84294">
        <ele>928.019303</ele>
        <time>2024-03-25T14:50:18.920Z</time>
      </trkpt>
      <trkpt lat="47.84048" lon="6.84326">
        <ele>935.041463</ele>
        <time>2024-03-25T14:51:29.010Z</time>
      </trkpt>
      <trkpt lat="47.83985" lon="6.8438">
        <ele>949.27049</ele>
        <time>2024-03-25T14:53:56.439Z</time>
      </trkpt>
      <trkpt lat="47.83942" lon="6.84406">
        <ele>958.540309</ele>
        <time>2024-03-25T14:55:34.176Z</time>
      </trkpt>
      <trkpt lat="47.83891" lon="6.84412">
        <ele>968.840343</ele>
        <time>2024-03-25T14:57:21.030Z</time>
      </trkpt>
      <trkpt lat="47.83816" lon="6.84376">
        <ele>984.798311</ele>
        <time>2024-03-25T15:00:01.933Z</time>
      </trkpt>
      <trkpt lat="47.8377" lon="6.8431">
        <ele>996.408664</ele>
        <time>2024-03-25T15:01:55.331Z</time>
      </trkpt>
      <trkpt lat="47.8374" lon="6.84278">
        <ele>1001.695025</ele>
        <time>2024-03-25T15:02:54.370Z</time>
      </trkpt>
      <trkpt lat="47.83621" lon="6.84175">
        <ele>1020.978334</ele>
        <time>2024-03-25T15:06:22.081Z</time>
      </trkpt>
      <trkpt lat="47.83548" lon="6.84129">
        <ele>1031.081964</ele>
        <time>2024-03-25T15:08:20.579Z</time>
      </trkpt>
      <trkpt lat="47.83478" lon="6.84099">
        <ele>1040.283312</ele>
        <time>2024-03-25T15:10:03.342Z</time>
      </trkpt>
      <trkpt lat="47.83456" lon="6.84087">
        <ele>1043.473194</ele>
        <time>2024-03-25T15:10:37.658Z</time>
      </trkpt>
      <trkpt lat="47.83421" lon="6.84056">
        <ele>1049.52568</ele>
        <time>2024-03-25T15:11:41.826Z</time>
      </trkpt>
      <trkpt lat="47.83366" lon="6.84025">
        <ele>1058.169787</ele>
        <time>2024-03-25T15:13:14.997Z</time>
      </trkpt>
      <trkpt lat="47.83353" lon="6.84022">
        <ele>1060.019106</ele>
        <time>2024-03-25T15:13:36.895Z</time>
      </trkpt>
      <trkpt lat="47.83314" lon="6.84035">
        <ele>1065.88691</ele>
        <time>2024-03-25T15:14:45.525Z</time>
      </trkpt>
      <trkpt lat="47.83316" lon="6.84014">
        <ele>1068.026573</ele>
        <time>2024-03-25T15:15:09.543Z</time>
      </trkpt>
      <trkpt lat="47.83294" lon="6.84025">
        <ele>1072.396872</ele>
        <time>2024-03-25T15:15:53.257Z</time>
      </trkpt>
      <trkpt lat="47.83253" lon="6.84021">
        <ele>1079.826962</ele>
        <time>2024-03-25T15:17:04.446Z</time>
      </trkpt>
      <trkpt lat="47.83252" lon="6.84027">
        <ele>1080.536581</ele>
        <time>2024-03-25T15:17:11.122Z</time>
      </trkpt>
      <trkpt lat="47.83206" lon="6.8405">
        <ele>1089.401712</ele>
        <time>2024-03-25T15:18:46.452Z</time>
      </trkpt>
      <trkpt lat="47.83066" lon="6.8403">
        <ele>1115.122893</ele>
        <time>2024-03-25T15:23:12.173Z</time>
      </trkpt>
      <trkpt lat="47.82998" lon="6.8403">
        <ele>1127.562429</ele>
        <time>2024-03-25T15:25:13.114Z</time>
      </trkpt>
      <trkpt lat="47.82989" lon="6.84015">
        <ele>1129.982423</ele>
        <time>2024-03-25T15:25:37.346Z</time>
      </trkpt>
      <trkpt lat="47.82976" lon="6.8401">
        <ele>1132.450577</ele>
        <time>2024-03-25T15:26:04.298Z</time>
      </trkpt>
      <trkpt lat="47.8292" lon="6.83964">
        <ele>1144.822494</ele>
        <time>2024-03-25T15:28:05.316Z</time>
      </trkpt>
      <trkpt lat="47.82893" lon="6.83927">
        <ele>1151.920178</ele>
        <time>2024-03-25T15:29:15.171Z</time>
      </trkpt>
      <trkpt lat="47.82875" lon="6.83927">
        <ele>1155.340614</ele>
        <time>2024-03-25T15:29:48.893Z</time>
      </trkpt>
      <trkpt lat="47.8285" lon="6.8391">
        <ele>1160.697256</ele>
        <time>2024-03-25T15:30:43.842Z</time>
      </trkpt>
      <trkpt lat="47.82787" lon="6.83928">
        <ele>1172.963943</ele>
        <time>2024-03-25T15:32:48.775Z</time>
      </trkpt>
      <trkpt lat="47.82688" lon="6.83976">
        <ele>1192.589325</ele>
        <time>2024-03-25T15:36:18.735Z</time>
      </trkpt>
      <trkpt lat="47.82638" lon="6.83978">
        <ele>1201.950493</ele>
        <time>2024-03-25T15:37:42.943Z</time>
      </trkpt>
      <trkpt lat="47.82608" lon="6.83972">
        <ele>1205.493113</ele>
        <time>2024-03-25T15:38:31.642Z</time>
      </trkpt>
      <trkpt lat="47.82554" lon="6.83949">
        <ele>1211.775222</ele>
        <time>2024-03-25T15:39:54.204Z</time>
      </trkpt>
      <trkpt lat="47.82484" lon="6.83906">
        <ele>1220.35959</ele>
        <time>2024-03-25T15:41:34.897Z</time>
      </trkpt>
      <trkpt lat="47.82458" lon="6.83903">
        <ele>1222.879577</ele>
        <time>2024-03-25T15:42:09.143Z</time>
      </trkpt>
      <trkpt lat="47.82482" lon="6.83998">
        <ele>1225.997054</ele>
        <time>2024-03-25T15:43:30.750Z</time>
      </trkpt>
      <trkpt lat="47.82487" lon="6.84087">
        <ele>1228.742981</ele>
        <time>2024-03-25T15:44:38.599Z</time>
      </trkpt>
      <trkpt lat="47.82511" lon="6.84225">
        <ele>1231.391335</ele>
        <time>2024-03-25T15:46:21.291Z</time>
      </trkpt>
      <trkpt lat="47.82488" lon="6.84289">
        <ele>1231.99319</ele>
        <time>2024-03-25T15:47:12.474Z</time>
      </trkpt>
      <trkpt lat="47.82398" lon="6.84482">
        <ele>1231.659408</ele>
        <time>2024-03-25T15:49:52.449Z</time>
      </trkpt>
      <trkpt lat="47.823" lon="6.8458">
        <ele>1228.884259</ele>
        <time>2024-03-25T15:51:58.492Z</time>
      </trkpt>
      <trkpt lat="47.82288" lon="6.84587">
        <ele>1228.060004</ele>
        <time>2024-03-25T15:52:12.689Z</time>
      </trkpt>
      <trkpt lat="47.8225" lon="6.84545">
        <ele>1225.066095</ele>
        <time>2024-03-25T15:53:05.135Z</time>
      </trkpt>
      <trkpt lat="47.82234" lon="6.84515">
        <ele>1223.448569</ele>
        <time>2024-03-25T15:53:33.367Z</time>
      </trkpt>
      <trkpt lat="47.82231" lon="6.84518">
        <ele>1223.230033</ele>
        <time>2024-03-25T15:53:39.413Z</time>
      </trkpt>
      <trkpt lat="47.82234" lon="6.84515">
        <ele>1223.011496</ele>
        <time>2024-03-25T15:53:45.295Z</time>
      </trkpt>
      <trkpt lat="47.82226" lon="6.84501">
        <ele>1222.24197</ele>
        <time>2024-03-25T15:53:59.548Z</time>
      </trkpt>
      <trkpt lat="47.82204" lon="6.84479">
        <ele>1220.556507</ele>
        <time>2024-03-25T15:54:30.058Z</time>
      </trkpt>
      <trkpt lat="47.82162" lon="6.84443">
        <ele>1216.526038</ele>
        <time>2024-03-25T15:55:26.627Z</time>
      </trkpt>
      <trkpt lat="47.82147" lon="6.84437">
        <ele>1214.605922</ele>
        <time>2024-03-25T15:55:46.354Z</time>
      </trkpt>
      <trkpt lat="47.82129" lon="6.84409">
        <ele>1211.454183</ele>
        <time>2024-03-25T15:56:18.073Z</time>
      </trkpt>
      <trkpt lat="47.82126" lon="6.84394">
        <ele>1210.181996</ele>
        <time>2024-03-25T15:56:31.416Z</time>
      </trkpt>
      <trkpt lat="47.82105" lon="6.84366">
        <ele>1206.710974</ele>
        <time>2024-03-25T15:57:06.694Z</time>
      </trkpt>
      <trkpt lat="47.82082" lon="6.84347">
        <ele>1203.518506</ele>
        <time>2024-03-25T15:57:38.982Z</time>
      </trkpt>
      <trkpt lat="47.82067" lon="6.84326">
        <ele>1200.9818</ele>
        <time>2024-03-25T15:58:05.018Z</time>
      </trkpt>
      <trkpt lat="47.82064" lon="6.84314">
        <ele>1199.923108</ele>
        <time>2024-03-25T15:58:15.885Z</time>
      </trkpt>
      <trkpt lat="47.82035" lon="6.84283">
        <ele>1195.530553</ele>
        <time>2024-03-25T15:59:01.280Z</time>
      </trkpt>
      <trkpt lat="47.82016" lon="6.8429">
        <ele>1193.24434</ele>
        <time>2024-03-25T15:59:26.067Z</time>
      </trkpt>
      <trkpt lat="47.82029" lon="6.84187">
        <ele>1184.701549</ele>
        <time>2024-03-25T16:00:55.661Z</time>
      </trkpt>
      <trkpt lat="47.82024" lon="6.84109">
        <ele>1178.346086</ele>
        <time>2024-03-25T16:02:00.110Z</time>
      </trkpt>
      <trkpt lat="47.82018" lon="6.84077">
        <ele>1175.605982</ele>
        <time>2024-03-25T16:02:27.428Z</time>
      </trkpt>
      <trkpt lat="47.82022" lon="6.84044">
        <ele>1174.086998</ele>
        <time>2024-03-25T16:02:51.837Z</time>
      </trkpt>
      <trkpt lat="47.82017" lon="6.84016">
        <ele>1173.24604</ele>
        <time>2024-03-25T16:03:14.263Z</time>
      </trkpt>
      <trkpt lat="47.82043" lon="6.83976">
        <ele>1171.671959</ele>
        <time>2024-03-25T16:03:54.808Z</time>
      </trkpt>
      <trkpt lat="47.8206" lon="6.83931">
        <ele>1170.209223</ele>
        <time>2024-03-25T16:04:31.995Z</time>
      </trkpt>
      <trkpt lat="47.82064" lon="6.83921">
        <ele>1169.862675</ele>
        <time>2024-03-25T16:04:40.323Z</time>
      </trkpt>
      <trkpt lat="47.82074" lon="6.83899">
        <ele>1169.129134</ele>
        <time>2024-03-25T16:04:59.344Z</time>
      </trkpt>
      <trkpt lat="47.82082" lon="6.83856">
        <ele>1167.853549</ele>
        <time>2024-03-25T16:05:30.767Z</time>
      </trkpt>
      <trkpt lat="47.82092" lon="6.83748">
        <ele>1166.856717</ele>
        <time>2024-03-25T16:06:45.522Z</time>
      </trkpt>
      <trkpt lat="47.821" lon="6.83714">
        <ele>1166.763739</ele>
        <time>2024-03-25T16:07:09.355Z</time>
      </trkpt>
      <trkpt lat="47.82099" lon="6.83685">
        <ele>1166.687151</ele>
        <time>2024-03-25T16:07:28.936Z</time>
      </trkpt>
      <trkpt lat="47.82091" lon="6.83644">
        <ele>1166.57416</ele>
        <time>2024-03-25T16:07:58.653Z</time>
      </trkpt>
      <trkpt lat="47.82047" lon="6.83515">
        <ele>1166.014772</ele>
        <time>2024-03-25T16:09:36.257Z</time>
      </trkpt>
      <trkpt lat="47.82047" lon="6.83494">
        <ele>1165.904454</ele>
        <time>2024-03-25T16:09:50.454Z</time>
      </trkpt>
      <trkpt lat="47.82038" lon="6.83486">
        <ele>1165.816961</ele>
        <time>2024-03-25T16:10:01.707Z</time>
      </trkpt>
      <trkpt lat="47.82036" lon="6.83474">
        <ele>1165.751586</ele>
        <time>2024-03-25T16:10:10.242Z</time>
      </trkpt>
      <trkpt lat="47.82022" lon="6.8346">
        <ele>1165.614464</ele>
        <time>2024-03-25T16:10:27.617Z</time>
      </trkpt>
      <trkpt lat="47.82009" lon="6.8345">
        <ele>1165.496048</ele>
        <time>2024-03-25T16:10:42.855Z</time>
      </trkpt>
      <trkpt lat="47.82002" lon="6.83443">
        <ele>1165.430635</ele>
        <time>2024-03-25T16:10:51.402Z</time>
      </trkpt>
      <trkpt lat="47.81992" lon="6.83437">
        <ele>1165.34848</ele>
        <time>2024-03-25T16:11:01.882Z</time>
      </trkpt>
      <trkpt lat="47.81979" lon="6.83429">
        <ele>1165.232365</ele>
        <time>2024-03-25T16:11:16.814Z</time>
      </trkpt>
      <trkpt lat="47.81971" lon="6.83425">
        <ele>1165.172539</ele>
        <time>2024-03-25T16:11:24.752Z</time>
      </trkpt>
      <trkpt lat="47.8192" lon="6.83433">
        <ele>1163.797681</ele>
        <time>2024-03-25T16:12:17.678Z</time>
      </trkpt>
      <trkpt lat="47.81863" lon="6.83402">
        <ele>1160.759476</ele>
        <time>2024-03-25T16:13:22.359Z</time>
      </trkpt>
      <trkpt lat="47.81843" lon="6.83353">
        <ele>1158.787488</ele>
        <time>2024-03-25T16:14:06.520Z</time>
      </trkpt>
      <trkpt lat="47.81798" lon="6.83276">
        <ele>1154.884582</ele>
        <time>2024-03-25T16:15:24.298Z</time>
      </trkpt>
      <trkpt lat="47.81797" lon="6.83273">
        <ele>1154.670204</ele>
        <time>2024-03-25T16:15:26.796Z</time>
      </trkpt>
      <trkpt lat="47.81762" lon="6.83171">
        <ele>1147.071263</ele>
        <time>2024-03-25T16:16:57.847Z</time>
      </trkpt>
      <trkpt lat="47.81753" lon="6.83158">
        <ele>1145.829588</ele>
        <time>2024-03-25T16:17:13.451Z</time>
      </trkpt>
      <trkpt lat="47.81725" lon="6.83145">
        <ele>1143.041926</ele>
        <time>2024-03-25T16:17:47.390Z</time>
      </trkpt>
      <trkpt lat="47.81716" lon="6.83131">
        <ele>1141.760611</ele>
        <time>2024-03-25T16:18:04.265Z</time>
      </trkpt>
      <trkpt lat="47.81727" lon="6.83081">
        <ele>1138.331709</ele>
        <time>2024-03-25T16:18:47.429Z</time>
      </trkpt>
      <trkpt lat="47.81735" lon="6.83063">
        <ele>1136.659539</ele>
        <time>2024-03-25T16:19:05.258Z</time>
      </trkpt>
      <trkpt lat="47.81747" lon="6.83052">
        <ele>1135.138913</ele>
        <time>2024-03-25T16:19:21.558Z</time>
      </trkpt>
      <trkpt lat="47.81754" lon="6.83046">
        <ele>1134.20604</ele>
        <time>2024-03-25T16:19:31.997Z</time>
      </trkpt>
      <trkpt lat="47.81752" lon="6.83015">
        <ele>1131.876625</ele>
        <time>2024-03-25T16:19:56.452Z</time>
      </trkpt>
      <trkpt lat="47.81744" lon="6.82999">
        <ele>1130.32276</ele>
        <time>2024-03-25T16:20:13.824Z</time>
      </trkpt>
      <trkpt lat="47.81673" lon="6.8291">
        <ele>1119.833144</ele>
        <time>2024-03-25T16:22:06.773Z</time>
      </trkpt>
      <trkpt lat="47.81668" lon="6.82881">
        <ele>1117.566679</ele>
        <time>2024-03-25T16:22:31.479Z</time>
      </trkpt>
      <trkpt lat="47.81647" lon="6.82853">
        <ele>1114.84127</ele>
        <time>2024-03-25T16:23:05.184Z</time>
      </trkpt>
      <trkpt lat="47.81636" lon="6.8283">
        <ele>1112.930165</ele>
        <time>2024-03-25T16:23:29.119Z</time>
      </trkpt>
      <trkpt lat="47.81602" lon="6.82723">
        <ele>1105.053388</ele>
        <time>2024-03-25T16:25:04.637Z</time>
      </trkpt>
      <trkpt lat="47.81589" lon="6.82716">
        <ele>1103.720478</ele>
        <time>2024-03-25T16:25:20.622Z</time>
      </trkpt>
      <trkpt lat="47.81562" lon="6.82678">
        <ele>1100.059085</ele>
        <time>2024-03-25T16:26:04.520Z</time>
      </trkpt>
      <trkpt lat="47.8154" lon="6.82641">
        <ele>1098.454353</ele>
        <time>2024-03-25T16:26:42.115Z</time>
      </trkpt>
      <trkpt lat="47.81516" lon="6.82599">
        <ele>1096.665649</ele>
        <time>2024-03-25T16:27:23.120Z</time>
      </trkpt>
      <trkpt lat="47.81473" lon="6.82425">
        <ele>1091.195725</ele>
        <time>2024-03-25T16:29:37.426Z</time>
      </trkpt>
      <trkpt lat="47.81453" lon="6.82388">
        <ele>1090.873475</ele>
        <time>2024-03-25T16:30:10.099Z</time>
      </trkpt>
      <trkpt lat="47.81441" lon="6.82386">
        <ele>1090.755615</ele>
        <time>2024-03-25T16:30:22.051Z</time>
      </trkpt>
      <trkpt lat="47.81403" lon="6.82399">
        <ele>1090.35861</ele>
        <time>2024-03-25T16:31:01.877Z</time>
      </trkpt>
      <trkpt lat="47.81382" lon="6.82405">
        <ele>1090.144456</ele>
        <time>2024-03-25T16:31:23.199Z</time>
      </trkpt>
      <trkpt lat="47.81339" lon="6.82403">
        <ele>1089.711915</ele>
        <time>2024-03-25T16:32:06.484Z</time>
      </trkpt>
      <trkpt lat="47.81311" lon="6.82391">
        <ele>1089.30241</ele>
        <time>2024-03-25T16:32:36.173Z</time>
      </trkpt>
      <trkpt lat="47.81289" lon="6.82385">
        <ele>1088.875104</ele>
        <time>2024-03-25T16:32:58.540Z</time>
      </trkpt>
      <trkpt lat="47.81272" lon="6.82389">
        <ele>1088.556803</ele>
        <time>2024-03-25T16:33:15.387Z</time>
      </trkpt>
      <trkpt lat="47.81222" lon="6.82436">
        <ele>1087.412387</ele>
        <time>2024-03-25T16:34:16.452Z</time>
      </trkpt>
      <trkpt lat="47.812" lon="6.82445">
        <ele>1086.973534</ele>
        <time>2024-03-25T16:34:41.119Z</time>
      </trkpt>
      <trkpt lat="47.81132" lon="6.82415">
        <ele>1084.75507</ele>
        <time>2024-03-25T16:35:58.357Z</time>
      </trkpt>
      <trkpt lat="47.81118" lon="6.82408">
        <ele>1083.993822</ele>
        <time>2024-03-25T16:36:13.349Z</time>
      </trkpt>
      <trkpt lat="47.81112" lon="6.82401">
        <ele>1083.576725</ele>
        <time>2024-03-25T16:36:21.503Z</time>
      </trkpt>
      <trkpt lat="47.81105" lon="6.82392">
        <ele>1083.097043</ele>
        <time>2024-03-25T16:36:32.107Z</time>
      </trkpt>
      <trkpt lat="47.81077" lon="6.82277">
        <ele>1078.683087</ele>
        <time>2024-03-25T16:38:02.306Z</time>
      </trkpt>
      <trkpt lat="47.81041" lon="6.82233">
        <ele>1076.041249</ele>
        <time>2024-03-25T16:38:55.446Z</time>
      </trkpt>
      <trkpt lat="47.81015" lon="6.82216">
        <ele>1073.592804</ele>
        <time>2024-03-25T16:39:29.474Z</time>
      </trkpt>
      <trkpt lat="47.80985" lon="6.82229">
        <ele>1070.957884</ele>
        <time>2024-03-25T16:40:05.304Z</time>
      </trkpt>
      <trkpt lat="47.80955" lon="6.82233">
        <ele>1068.413384</ele>
        <time>2024-03-25T16:40:40.170Z</time>
      </trkpt>
      <trkpt lat="47.80931" lon="6.82217">
        <ele>1066.128825</ele>
        <time>2024-03-25T16:41:11.982Z</time>
      </trkpt>
      <trkpt lat="47.80903" lon="6.82178">
        <ele>1062.869564</ele>
        <time>2024-03-25T16:41:56.885Z</time>
      </trkpt>
      <trkpt lat="47.8088" lon="6.82119">
        <ele>1058.926654</ele>
        <time>2024-03-25T16:42:50.650Z</time>
      </trkpt>
      <trkpt lat="47.80839" lon="6.8207">
        <ele>1054.316166</ele>
        <time>2024-03-25T16:43:53.768Z</time>
      </trkpt>
      <trkpt lat="47.80792" lon="6.82051">
        <ele>1050.104341</ele>
        <time>2024-03-25T16:44:50.380Z</time>
      </trkpt>
      <trkpt lat="47.80772" lon="6.82033">
        <ele>1048.074305</ele>
        <time>2024-03-25T16:45:16.913Z</time>
      </trkpt>
      <trkpt lat="47.80763" lon="6.81991">
        <ele>1045.494767</ele>
        <time>2024-03-25T16:45:51.808Z</time>
      </trkpt>
      <trkpt lat="47.80775" lon="6.81918">
        <ele>1042.675297</ele>
        <time>2024-03-25T16:46:50.556Z</time>
      </trkpt>
      <trkpt lat="47.80775" lon="6.81863">
        <ele>1040.680207</ele>
        <time>2024-03-25T16:47:31.211Z</time>
      </trkpt>
      <trkpt lat="47.80775" lon="6.81862">
        <ele>1040.625095</ele>
        <time>2024-03-25T16:47:32.495Z</time>
      </trkpt>
      <trkpt lat="47.80772" lon="6.81852">
        <ele>1040.210397</ele>
        <time>2024-03-25T16:47:40.826Z</time>
      </trkpt>
      <trkpt lat="47.80752" lon="6.81834">
        <ele>1038.986483</ele>
        <time>2024-03-25T16:48:05.461Z</time>
      </trkpt>
      <trkpt lat="47.80728" lon="6.81794">
        <ele>1036.976489</ele>
        <time>2024-03-25T16:48:46.005Z</time>
      </trkpt>
      <trkpt lat="47.80635" lon="6.81851">
        <ele>1034.269317</ele>
        <time>2024-03-25T16:50:30.742Z</time>
      </trkpt>
      <trkpt lat="47.80626" lon="6.81852">
        <ele>1034.110877</ele>
        <time>2024-03-25T16:50:40.323Z</time>
      </trkpt>
      <trkpt lat="47.80621" lon="6.81846">
        <ele>1033.995993</ele>
        <time>2024-03-25T16:50:46.990Z</time>
      </trkpt>
      <trkpt lat="47.80623" lon="6.81823">
        <ele>1033.724698</ele>
        <time>2024-03-25T16:51:02.928Z</time>
      </trkpt>
      <trkpt lat="47.80629" lon="6.81814">
        <ele>1033.57685</ele>
        <time>2024-03-25T16:51:12.086Z</time>
      </trkpt>
      <trkpt lat="47.80534" lon="6.81824">
        <ele>1030.004837</ele>
        <time>2024-03-25T16:52:47.665Z</time>
      </trkpt>
      <trkpt lat="47.80474" lon="6.81835">
        <ele>1025.100762</ele>
        <time>2024-03-25T16:53:55.298Z</time>
      </trkpt>
      <trkpt lat="47.80437" lon="6.81828">
        <ele>1022.039165</ele>
        <time>2024-03-25T16:54:40.334Z</time>
      </trkpt>
      <trkpt lat="47.80423" lon="6.81846">
        <ele>1020.56198</ele>
        <time>2024-03-25T16:55:03.086Z</time>
      </trkpt>
      <trkpt lat="47.80402" lon="6.81902">
        <ele>1016.420736</ele>
        <time>2024-03-25T16:55:59.518Z</time>
      </trkpt>
      <trkpt lat="47.80388" lon="6.81942">
        <ele>1012.30178</ele>
        <time>2024-03-25T16:56:38.069Z</time>
      </trkpt>
      <trkpt lat="47.80377" lon="6.81956">
        <ele>1010.289292</ele>
        <time>2024-03-25T16:56:56.964Z</time>
      </trkpt>
      <trkpt lat="47.80309" lon="6.81933">
        <ele>1000.661626</ele>
        <time>2024-03-25T16:58:26.043Z</time>
      </trkpt>
      <trkpt lat="47.8026" lon="6.81946">
        <ele>993.674097</ele>
        <time>2024-03-25T16:59:29.227Z</time>
      </trkpt>
      <trkpt lat="47.80216" lon="6.81935">
        <ele>989.846079</ele>
        <time>2024-03-25T17:00:23.309Z</time>
      </trkpt>
      <trkpt lat="47.80178" lon="6.81857">
        <ele>984.716728</ele>
        <time>2024-03-25T17:01:38.900Z</time>
      </trkpt>
      <trkpt lat="47.80155" lon="6.81833">
        <ele>982.510737</ele>
        <time>2024-03-25T17:02:10.094Z</time>
      </trkpt>
      <trkpt lat="47.80139" lon="6.81826">
        <ele>981.263983</ele>
        <time>2024-03-25T17:02:27.625Z</time>
      </trkpt>
      <trkpt lat="47.80123" lon="6.81828">
        <ele>979.932244</ele>
        <time>2024-03-25T17:02:46.433Z</time>
      </trkpt>
      <trkpt lat="47.80088" lon="6.81848">
        <ele>977.732675</ele>
        <time>2024-03-25T17:03:27.425Z</time>
      </trkpt>
      <trkpt lat="47.80069" lon="6.81901">
        <ele>975.905246</ele>
        <time>2024-03-25T17:04:11.972Z</time>
      </trkpt>
      <trkpt lat="47.80036" lon="6.81921">
        <ele>974.282118</ele>
        <time>2024-03-25T17:04:51.406Z</time>
      </trkpt>
      <trkpt lat="47.80004" lon="6.81916">
        <ele>972.838578</ele>
        <time>2024-03-25T17:05:26.145Z</time>
      </trkpt>
      <trkpt lat="47.79996" lon="6.81915">
        <ele>972.47318</ele>
        <time>2024-03-25T17:05:34.890Z</time>
      </trkpt>
      <trkpt lat="47.7998" lon="6.81888">
        <ele>971.390959</ele>
        <time>2024-03-25T17:06:00.462Z</time>
      </trkpt>
      <trkpt lat="47.79964" lon="6.81878">
        <ele>970.593289</ele>
        <time>2024-03-25T17:06:19.030Z</time>
      </trkpt>
      <trkpt lat="47.79949" lon="6.81881">
        <ele>969.579437</ele>
        <time>2024-03-25T17:06:35.717Z</time>
      </trkpt>
      <trkpt lat="47.79914" lon="6.8191">
        <ele>966.964376</ele>
        <time>2024-03-25T17:07:18.308Z</time>
      </trkpt>
      <trkpt lat="47.79864" lon="6.81963">
        <ele>962.949295</ele>
        <time>2024-03-25T17:08:27.508Z</time>
      </trkpt>
      <trkpt lat="47.79855" lon="6.8198">
        <ele>962.003569</ele>
        <time>2024-03-25T17:08:44.296Z</time>
      </trkpt>
      <trkpt lat="47.79846" lon="6.82007">
        <ele>960.673993</ele>
        <time>2024-03-25T17:09:07.640Z</time>
      </trkpt>
      <trkpt lat="47.79848" lon="6.8209">
        <ele>954.811215</ele>
        <time>2024-03-25T17:10:14.655Z</time>
      </trkpt>
      <trkpt lat="47.79847" lon="6.82141">
        <ele>949.759045</ele>
        <time>2024-03-25T17:10:57.624Z</time>
      </trkpt>
      <trkpt lat="47.79858" lon="6.82216">
        <ele>942.194387</ele>
        <time>2024-03-25T17:12:04.193Z</time>
      </trkpt>
      <trkpt lat="47.79856" lon="6.82243">
        <ele>939.508672</ele>
        <time>2024-03-25T17:12:28.515Z</time>
      </trkpt>
      <trkpt lat="47.79803" lon="6.82377">
        <ele>923.6218</ele>
        <time>2024-03-25T17:14:52.548Z</time>
      </trkpt>
      <trkpt lat="47.7976" lon="6.82458">
        <ele>912.756694</ele>
        <time>2024-03-25T17:16:23.857Z</time>
      </trkpt>
      <trkpt lat="47.79765" lon="6.82475">
        <ele>910.823943</ele>
        <time>2024-03-25T17:16:39.336Z</time>
      </trkpt>
      <trkpt lat="47.79824" lon="6.8255">
        <ele>901.049262</ele>
        <time>2024-03-25T17:18:15.679Z</time>
      </trkpt>
      <trkpt lat="47.7983" lon="6.82556">
        <ele>900.411944</ele>
        <time>2024-03-25T17:18:24.661Z</time>
      </trkpt>
      <trkpt lat="47.79848" lon="6.82558">
        <ele>898.835667</ele>
        <time>2024-03-25T17:18:45.153Z</time>
      </trkpt>
      <trkpt lat="47.79874" lon="6.82549">
        <ele>896.52421</ele>
        <time>2024-03-25T17:19:16.546Z</time>
      </trkpt>
      <trkpt lat="47.7992" lon="6.82515">
        <ele>891.949541</ele>
        <time>2024-03-25T17:20:16.226Z</time>
      </trkpt>
      <trkpt lat="47.80005" lon="6.82511">
        <ele>885.323369</ele>
        <time>2024-03-25T17:21:50.650Z</time>
      </trkpt>
      <trkpt lat="47.80017" lon="6.82511">
        <ele>884.480848</ele>
        <time>2024-03-25T17:22:04.804Z</time>
      </trkpt>
      <trkpt lat="47.80028" lon="6.82508">
        <ele>883.725652</ele>
        <time>2024-03-25T17:22:17.574Z</time>
      </trkpt>
      <trkpt lat="47.80038" lon="6.8249">
        <ele>882.623607</ele>
        <time>2024-03-25T17:22:35.444Z</time>
      </trkpt>
      <trkpt lat="47.80049" lon="6.82443">
        <ele>880.348994</ele>
        <time>2024-03-25T17:23:13.280Z</time>
      </trkpt>
      <trkpt lat="47.80084" lon="6.82373">
        <ele>876.328969</ele>
        <time>2024-03-25T17:24:21.393Z</time>
      </trkpt>
      <trkpt lat="47.80102" lon="6.82276">
        <ele>870.996821</ele>
        <time>2024-03-25T17:25:38.007Z</time>
      </trkpt>
      <trkpt lat="47.80115" lon="6.82248">
        <ele>869.145035</ele>
        <time>2024-03-25T17:26:04.652Z</time>
      </trkpt>
      <trkpt lat="47.80128" lon="6.82248">
        <ele>868.072421</ele>
        <time>2024-03-25T17:26:20.406Z</time>
      </trkpt>
      <trkpt lat="47.80158" lon="6.82286">
        <ele>864.955849</ele>
        <time>2024-03-25T17:27:05.554Z</time>
      </trkpt>
      <trkpt lat="47.80192" lon="6.82296">
        <ele>862.15812</ele>
        <time>2024-03-25T17:27:46.160Z</time>
      </trkpt>
      <trkpt lat="47.80226" lon="6.82318">
        <ele>858.422598</ele>
        <time>2024-03-25T17:28:30.331Z</time>
      </trkpt>
      <trkpt lat="47.80247" lon="6.82348">
        <ele>855.309845</ele>
        <time>2024-03-25T17:29:06.242Z</time>
      </trkpt>
      <trkpt lat="47.80247" lon="6.82366">
        <ele>854.033283</ele>
        <time>2024-03-25T17:29:20.763Z</time>
      </trkpt>
      <trkpt lat="47.80233" lon="6.82408">
        <ele>850.697921</ele>
        <time>2024-03-25T17:29:59.038Z</time>
      </trkpt>
      <trkpt lat="47.80232" lon="6.8243">
        <ele>849.131118</ele>
        <time>2024-03-25T17:30:17.201Z</time>
      </trkpt>
      <trkpt lat="47.80236" lon="6.82449">
        <ele>847.730282</ele>
        <time>2024-03-25T17:30:33.388Z</time>
      </trkpt>
      <trkpt lat="47.80241" lon="6.82478">
        <ele>845.555135</ele>
        <time>2024-03-25T17:30:58.119Z</time>
      </trkpt>
      <trkpt lat="47.80263" lon="6.8254">
        <ele>840.694173</ele>
        <time>2024-03-25T17:31:55.257Z</time>
      </trkpt>
      <trkpt lat="47.80263" lon="6.82577">
        <ele>838.323258</ele>
        <time>2024-03-25T17:32:25.148Z</time>
      </trkpt>
      <trkpt lat="47.80256" lon="6.82626">
        <ele>835.028177</ele>
        <time>2024-03-25T17:33:06.382Z</time>
      </trkpt>
      <trkpt lat="47.80258" lon="6.82643">
        <ele>833.891315</ele>
        <time>2024-03-25T17:33:20.452Z</time>
      </trkpt>
      <trkpt lat="47.80309" lon="6.82682">
        <ele>828.35912</ele>
        <time>2024-03-25T17:34:29.202Z</time>
      </trkpt>
      <trkpt lat="47.80318" lon="6.82707">
        <ele>826.478971</ele>
        <time>2024-03-25T17:34:51.326Z</time>
      </trkpt>
      <trkpt lat="47.80314" lon="6.8273">
        <ele>824.95807</ele>
        <time>2024-03-25T17:35:10.041Z</time>
      </trkpt>
      <trkpt lat="47.80284" lon="6.82762">
        <ele>825.437522</ele>
        <time>2024-03-25T17:35:51.091Z</time>
      </trkpt>
      <trkpt lat="47.80281" lon="6.82791">
        <ele>825.692928</ele>
        <time>2024-03-25T17:36:11.920Z</time>
      </trkpt>
      <trkpt lat="47.80296" lon="6.82856">
        <ele>826.301053</ele>
        <time>2024-03-25T17:36:59.018Z</time>
      </trkpt>
      <trkpt lat="47.80301" lon="6.82879">
        <ele>826.515604</ele>
        <time>2024-03-25T17:37:17.143Z</time>
      </trkpt>
      <trkpt lat="47.80322" lon="6.82942">
        <ele>827.138335</ele>
        <time>2024-03-25T17:38:13.596Z</time>
      </trkpt>
      <trkpt lat="47.80319" lon="6.82997">
        <ele>832.239279</ele>
        <time>2024-03-25T17:39:01.706Z</time>
      </trkpt>
      <trkpt lat="47.80315" lon="6.83013">
        <ele>834.561558</ele>
        <time>2024-03-25T17:39:14.650Z</time>
      </trkpt>
      <trkpt lat="47.80314" lon="6.83023">
        <ele>836.033158</ele>
        <time>2024-03-25T17:39:23.283Z</time>
      </trkpt>
      <trkpt lat="47.80326" lon="6.83026">
        <ele>838.564046</ele>
        <time>2024-03-25T17:40:05.198Z</time>
      </trkpt>
      <trkpt lat="47.80341" lon="6.83043">
        <ele>842.642223</ele>
        <time>2024-03-25T17:40:32.688Z</time>
      </trkpt>
      <trkpt lat="47.80366" lon="6.83051">
        <ele>847.893861</ele>
        <time>2024-03-25T17:41:40.360Z</time>
      </trkpt>
      <trkpt lat="47.80342" lon="6.83106">
        <ele>857.114121</ele>
        <time>2024-03-25T17:43:14.018Z</time>
      </trkpt>
      <trkpt lat="47.80346" lon="6.83112">
        <ele>858.256887</ele>
        <time>2024-03-25T17:43:21.035Z</time>
      </trkpt>
      <trkpt lat="47.80384" lon="6.83113">
        <ele>866.284658</ele>
        <time>2024-03-25T17:44:56.507Z</time>
      </trkpt>
      <trkpt lat="47.80395" lon="6.83128">
        <ele>869.092058</ele>
        <time>2024-03-25T17:45:48.949Z</time>
      </trkpt>
      <trkpt lat="47.80441" lon="6.83158">
        <ele>878.721448</ele>
        <time>2024-03-25T17:47:17.490Z</time>
      </trkpt>
      <trkpt lat="47.80484" lon="6.83209">
        <ele>889.138197</ele>
        <time>2024-03-25T17:49:03.660Z</time>
      </trkpt>
      <trkpt lat="47.80509" lon="6.83229">
        <ele>894.518363</ele>
        <time>2024-03-25T17:49:52.679Z</time>
      </trkpt>
      <trkpt lat="47.80499" lon="6.8323">
        <ele>896.408285</ele>
        <time>2024-03-25T17:50:16.842Z</time>
      </trkpt>
      <trkpt lat="47.8048" lon="6.83224">
        <ele>899.809312</ele>
        <time>2024-03-25T17:50:41.288Z</time>
      </trkpt>
      <trkpt lat="47.80443" lon="6.83232">
        <ele>903.774441</ele>
        <time>2024-03-25T17:51:26.752Z</time>
      </trkpt>
      <trkpt lat="47.80423" lon="6.83229">
        <ele>905.934453</ele>
        <time>2024-03-25T17:51:52.416Z</time>
      </trkpt>
      <trkpt lat="47.80403" lon="6.83254">
        <ele>908.769064</ele>
        <time>2024-03-25T17:52:25.653Z</time>
      </trkpt>
      <trkpt lat="47.80422" lon="6.83267">
        <ele>911.048519</ele>
        <time>2024-03-25T17:52:58.096Z</time>
      </trkpt>
      <trkpt lat="47.80434" lon="6.8329">
        <ele>913.078163</ele>
        <time>2024-03-25T17:53:22.711Z</time>
      </trkpt>
      <trkpt lat="47.80448" lon="6.83341">
        <ele>917.069193</ele>
        <time>2024-03-25T17:54:10.936Z</time>
      </trkpt>
      <trkpt lat="47.80467" lon="6.83388">
        <ele>922.551521</ele>
        <time>2024-03-25T17:55:06.411Z</time>
      </trkpt>
      <trkpt lat="47.80474" lon="6.83412">
        <ele>925.805344</ele>
        <time>2024-03-25T17:55:39.209Z</time>
      </trkpt>
      <trkpt lat="47.80489" lon="6.83405">
        <ele>928.468942</ele>
        <time>2024-03-25T17:56:02.987Z</time>
      </trkpt>
      <trkpt lat="47.80508" lon="6.83445">
        <ele>934.407582</ele>
        <time>2024-03-25T17:57:08.722Z</time>
      </trkpt>
      <trkpt lat="47.80564" lon="6.83521">
        <ele>947.841571</ele>
        <time>2024-03-25T17:59:41.063Z</time>
      </trkpt>
      <trkpt lat="47.80624" lon="6.83594">
        <ele>959.833283</ele>
        <time>2024-03-25T18:02:04.656Z</time>
      </trkpt>
      <trkpt lat="47.80651" lon="6.83633">
        <ele>965.46461</ele>
        <time>2024-03-25T18:03:21.209Z</time>
      </trkpt>
      <trkpt lat="47.80652" lon="6.83682">
        <ele>970.415663</ele>
        <time>2024-03-25T18:04:25.530Z</time>
      </trkpt>
      <trkpt lat="47.80635" lon="6.83762">
        <ele>978.327365</ele>
        <time>2024-03-25T18:05:43.961Z</time>
      </trkpt>
      <trkpt lat="47.8064" lon="6.83854">
        <ele>983.947902</ele>
        <time>2024-03-25T18:07:05.559Z</time>
      </trkpt>
      <trkpt lat="47.80689" lon="6.83946">
        <ele>991.174134</ele>
        <time>2024-03-25T18:08:43.862Z</time>
      </trkpt>
      <trkpt lat="47.80756" lon="6.84049">
        <ele>1003.105338</ele>
        <time>2024-03-25T18:10:51.239Z</time>
      </trkpt>
      <trkpt lat="47.80816" lon="6.84161">
        <ele>1016.574874</ele>
        <time>2024-03-25T18:13:40.829Z</time>
      </trkpt>
      <trkpt lat="47.80841" lon="6.84193">
        <ele>1021.278408</ele>
        <time>2024-03-25T18:14:37.921Z</time>
      </trkpt>
      <trkpt lat="47.80844" lon="6.84184">
        <ele>1022.333197</ele>
        <time>2024-03-25T18:14:50.563Z</time>
      </trkpt>
      <trkpt lat="47.80838" lon="6.84128">
        <ele>1028.00486</ele>
        <time>2024-03-25T18:15:53.160Z</time>
      </trkpt>
      <trkpt lat="47.8085" lon="6.84129">
        <ele>1029.851919</ele>
        <time>2024-03-25T18:16:15.648Z</time>
      </trkpt>
      <trkpt lat="47.80876" lon="6.84157">
        <ele>1034.648463</ele>
        <time>2024-03-25T18:17:08.329Z</time>
      </trkpt>
      <trkpt lat="47.80891" lon="6.84199">
        <ele>1039.382927</ele>
        <time>2024-03-25T18:17:59.285Z</time>
      </trkpt>
      <trkpt lat="47.80919" lon="6.84227">
        <ele>1044.47814</ele>
        <time>2024-03-25T18:18:54.745Z</time>
      </trkpt>
      <trkpt lat="47.80935" lon="6.8426">
        <ele>1047.841892</ele>
        <time>2024-03-25T18:19:35.673Z</time>
      </trkpt>
      <trkpt lat="47.80962" lon="6.84276">
        <ele>1050.917326</ele>
        <time>2024-03-25T18:20:16.410Z</time>
      </trkpt>
      <trkpt lat="47.80964" lon="6.84352">
        <ele>1056.348233</ele>
        <time>2024-03-25T18:21:20.122Z</time>
      </trkpt>
      <trkpt lat="47.80977" lon="6.84397">
        <ele>1059.905201</ele>
        <time>2024-03-25T18:22:04.398Z</time>
      </trkpt>
      <trkpt lat="47.80977" lon="6.84434">
        <ele>1062.544113</ele>
        <time>2024-03-25T18:22:38.441Z</time>
      </trkpt>
      <trkpt lat="47.80985" lon="6.84528">
        <ele>1068.931137</ele>
        <time>2024-03-25T18:24:10.089Z</time>
      </trkpt>
      <trkpt lat="47.80999" lon="6.8458">
        <ele>1072.624476</ele>
        <time>2024-03-25T18:25:01.298Z</time>
      </trkpt>
      <trkpt lat="47.81019" lon="6.84605">
        <ele>1075.196949</ele>
        <time>2024-03-25T18:25:37.227Z</time>
      </trkpt>
      <trkpt lat="47.81025" lon="6.84612">
        <ele>1075.950948</ele>
        <time>2024-03-25T18:25:46.339Z</time>
      </trkpt>
      <trkpt lat="47.81035" lon="6.8463">
        <ele>1077.455763</ele>
        <time>2024-03-25T18:26:06.762Z</time>
      </trkpt>
      <trkpt lat="47.81047" lon="6.84632">
        <ele>1078.689886</ele>
        <time>2024-03-25T18:26:23.074Z</time>
      </trkpt>
      <trkpt lat="47.8105" lon="6.84646">
        <ele>1079.640561</ele>
        <time>2024-03-25T18:26:34.331Z</time>
      </trkpt>
      <trkpt lat="47.8105" lon="6.84664">
        <ele>1080.866339</ele>
        <time>2024-03-25T18:26:50.948Z</time>
      </trkpt>
      <trkpt lat="47.80985" lon="6.84759">
        <ele>1086.636369</ele>
        <time>2024-03-25T18:28:46.268Z</time>
      </trkpt>
      <trkpt lat="47.80958" lon="6.84786">
        <ele>1088.421661</ele>
        <time>2024-03-25T18:29:23.900Z</time>
      </trkpt>
      <trkpt lat="47.80932" lon="6.84802">
        <ele>1089.967205</ele>
        <time>2024-03-25T18:29:55.839Z</time>
      </trkpt>
      <trkpt lat="47.80902" lon="6.8481">
        <ele>1091.590272</ele>
        <time>2024-03-25T18:30:28.668Z</time>
      </trkpt>
      <trkpt lat="47.80882" lon="6.84833">
        <ele>1092.689992</ele>
        <time>2024-03-25T18:30:57.624Z</time>
      </trkpt>
      <trkpt lat="47.80858" lon="6.84855">
        <ele>1093.319648</ele>
        <time>2024-03-25T18:31:29.826Z</time>
      </trkpt>
      <trkpt lat="47.80821" lon="6.84954">
        <ele>1095.022595</ele>
        <time>2024-03-25T18:32:56.383Z</time>
      </trkpt>
      <trkpt lat="47.80817" lon="6.84992">
        <ele>1095.599167</ele>
        <time>2024-03-25T18:33:24.550Z</time>
      </trkpt>
      <trkpt lat="47.80803" lon="6.8502">
        <ele>1096.128685</ele>
        <time>2024-03-25T18:33:49.726Z</time>
      </trkpt>
      <trkpt lat="47.80785" lon="6.85085">
        <ele>1094.331943</ele>
        <time>2024-03-25T18:34:38.273Z</time>
      </trkpt>
      <trkpt lat="47.80786" lon="6.85249">
        <ele>1086.50483</ele>
        <time>2024-03-25T18:36:45.423Z</time>
      </trkpt>
      <trkpt lat="47.80768" lon="6.85429">
        <ele>1074.873516</ele>
        <time>2024-03-25T18:39:16.153Z</time>
      </trkpt>
      <trkpt lat="47.80769" lon="6.85472">
        <ele>1071.857028</ele>
        <time>2024-03-25T18:39:50.977Z</time>
      </trkpt>
      <trkpt lat="47.80754" lon="6.85538">
        <ele>1066.872699</ele>
        <time>2024-03-25T18:40:47.788Z</time>
      </trkpt>
      <trkpt lat="47.80736" lon="6.85667">
        <ele>1058.402006</ele>
        <time>2024-03-25T18:42:30.467Z</time>
      </trkpt>
      <trkpt lat="47.80736" lon="6.85717">
        <ele>1055.295205</ele>
        <time>2024-03-25T18:43:09.206Z</time>
      </trkpt>
      <trkpt lat="47.80753" lon="6.8576">
        <ele>1052.167275</ele>
        <time>2024-03-25T18:43:48.898Z</time>
      </trkpt>
      <trkpt lat="47.80789" lon="6.85772">
        <ele>1048.767323</ele>
        <time>2024-03-25T18:44:33.069Z</time>
      </trkpt>
      <trkpt lat="47.80848" lon="6.85815">
        <ele>1042.357199</ele>
        <time>2024-03-25T18:45:56.150Z</time>
      </trkpt>
      <trkpt lat="47.80947" lon="6.85935">
        <ele>1030.091596</ele>
        <time>2024-03-25T18:48:24.002Z</time>
      </trkpt>
      <trkpt lat="47.80965" lon="6.85944">
        <ele>1028.737344</ele>
        <time>2024-03-25T18:48:48.800Z</time>
      </trkpt>
      <trkpt lat="47.80971" lon="6.86009">
        <ele>1025.708856</ele>
        <time>2024-03-25T18:49:39.492Z</time>
      </trkpt>
      <trkpt lat="47.80966" lon="6.86128">
        <ele>1020.158796</ele>
        <time>2024-03-25T18:51:09.584Z</time>
      </trkpt>
      <trkpt lat="47.80987" lon="6.86169">
        <ele>1017.674139</ele>
        <time>2024-03-25T18:51:47.515Z</time>
      </trkpt>
      <trkpt lat="47.80989" lon="6.86191">
        <ele>1016.07492</ele>
        <time>2024-03-25T18:52:03.839Z</time>
      </trkpt>
      <trkpt lat="47.81002" lon="6.86215">
        <ele>1013.947416</ele>
        <time>2024-03-25T18:52:26.342Z</time>
      </trkpt>
      <trkpt lat="47.81015" lon="6.86266">
        <ele>1010.103756</ele>
        <time>2024-03-25T18:53:09.143Z</time>
      </trkpt>
      <trkpt lat="47.81033" lon="6.86291">
        <ele>1007.574183</ele>
        <time>2024-03-25T18:53:39.082Z</time>
      </trkpt>
      <trkpt lat="47.81051" lon="6.86364">
        <ele>1002.133832</ele>
        <time>2024-03-25T18:54:46.257Z</time>
      </trkpt>
      <trkpt lat="47.81056" lon="6.86408">
        <ele>998.828151</ele>
        <time>2024-03-25T18:55:23.257Z</time>
      </trkpt>
      <trkpt lat="47.81066" lon="6.86425">
        <ele>996.176961</ele>
        <time>2024-03-25T18:55:42.079Z</time>
      </trkpt>
      <trkpt lat="47.8107" lon="6.86474">
        <ele>990.299164</ele>
        <time>2024-03-25T18:56:24.699Z</time>
      </trkpt>
      <trkpt lat="47.81126" lon="6.86607">
        <ele>971.551607</ele>
        <time>2024-03-25T18:58:48.240Z</time>
      </trkpt>
      <trkpt lat="47.81132" lon="6.86685">
        <ele>960.90388</ele>
        <time>2024-03-25T19:00:12.929Z</time>
      </trkpt>
      <trkpt lat="47.81141" lon="6.86738">
        <ele>952.831231</ele>
        <time>2024-03-25T19:01:09.806Z</time>
      </trkpt>
      <trkpt lat="47.81147" lon="6.86758">
        <ele>949.586227</ele>
        <time>2024-03-25T19:01:30.658Z</time>
      </trkpt>
      <trkpt lat="47.81177" lon="6.86805">
        <ele>940.013568</ele>
        <time>2024-03-25T19:02:34.665Z</time>
      </trkpt>
      <trkpt lat="47.81201" lon="6.86876">
        <ele>928.333468</ele>
        <time>2024-03-25T19:03:59.242Z</time>
      </trkpt>
      <trkpt lat="47.81213" lon="6.86941">
        <ele>919.54666</ele>
        <time>2024-03-25T19:05:11.979Z</time>
      </trkpt>
      <trkpt lat="47.81214" lon="6.86973">
        <ele>915.404578</ele>
        <time>2024-03-25T19:05:46.635Z</time>
      </trkpt>
      <trkpt lat="47.81222" lon="6.86976">
        <ele>913.880536</ele>
        <time>2024-03-25T19:06:00.147Z</time>
      </trkpt>
      <trkpt lat="47.8122" lon="6.87005">
        <ele>910.069089</ele>
        <time>2024-03-25T19:06:26.556Z</time>
      </trkpt>
      <trkpt lat="47.81226" lon="6.87023">
        <ele>907.456661</ele>
        <time>2024-03-25T19:06:49.670Z</time>
      </trkpt>
      <trkpt lat="47.81241" lon="6.86982">
        <ele>901.430472</ele>
        <time>2024-03-25T19:07:30.374Z</time>
      </trkpt>
      <trkpt lat="47.81264" lon="6.8694">
        <ele>894.414655</ele>
        <time>2024-03-25T19:08:15.883Z</time>
      </trkpt>
      <trkpt lat="47.81271" lon="6.86942">
        <ele>893.097446</ele>
        <time>2024-03-25T19:08:24.964Z</time>
      </trkpt>
      <trkpt lat="47.81285" lon="6.86977">
        <ele>889.637319</ele>
        <time>2024-03-25T19:08:59.115Z</time>
      </trkpt>
      <trkpt lat="47.81289" lon="6.86977">
        <ele>889.166483</ele>
        <time>2024-03-25T19:09:04.323Z</time>
      </trkpt>
      <trkpt lat="47.81294" lon="6.86966">
        <ele>888.030602</ele>
        <time>2024-03-25T19:09:15.627Z</time>
      </trkpt>
      <trkpt lat="47.81302" lon="6.86915">
        <ele>883.600811</ele>
        <time>2024-03-25T19:10:00.375Z</time>
      </trkpt>
      <trkpt lat="47.81306" lon="6.86921">
        <ele>882.817651</ele>
        <time>2024-03-25T19:10:07.811Z</time>
      </trkpt>
      <trkpt lat="47.81323" lon="6.87005">
        <ele>875.402321</ele>
        <time>2024-03-25T19:11:19.484Z</time>
      </trkpt>
      <trkpt lat="47.81327" lon="6.86989">
        <ele>873.900261</ele>
        <time>2024-03-25T19:11:33.520Z</time>
      </trkpt>
      <trkpt lat="47.81343" lon="6.86979">
        <ele>871.703141</ele>
        <time>2024-03-25T19:11:53.839Z</time>
      </trkpt>
      <trkpt lat="47.81345" lon="6.86977">
        <ele>871.394859</ele>
        <time>2024-03-25T19:11:56.877Z</time>
      </trkpt>
      <trkpt lat="47.81355" lon="6.86961">
        <ele>869.054598</ele>
        <time>2024-03-25T19:12:15.429Z</time>
      </trkpt>
      <trkpt lat="47.81359" lon="6.8694">
        <ele>866.261923</ele>
        <time>2024-03-25T19:12:33.548Z</time>
      </trkpt>
      <trkpt lat="47.81363" lon="6.86909">
        <ele>862.232781</ele>
        <time>2024-03-25T19:13:00.847Z</time>
      </trkpt>
      <trkpt lat="47.81362" lon="6.86827">
        <ele>851.836795</ele>
        <time>2024-03-25T19:14:13.990Z</time>
      </trkpt>
      <trkpt lat="47.81385" lon="6.86713">
        <ele>836.51424</ele>
        <time>2024-03-25T19:16:20.541Z</time>
      </trkpt>
      <trkpt lat="47.81369" lon="6.8655">
        <ele>809.815426</ele>
        <time>2024-03-25T19:19:30.198Z</time>
      </trkpt>
      <trkpt lat="47.8135" lon="6.86438">
        <ele>791.376265</ele>
        <time>2024-03-25T19:21:30.788Z</time>
      </trkpt>
      <trkpt lat="47.81384" lon="6.86407">
        <ele>783.720964</ele>
        <time>2024-03-25T19:22:27.283Z</time>
      </trkpt>
      <trkpt lat="47.81398" lon="6.86358">
        <ele>776.76398</ele>
        <time>2024-03-25T19:23:16.829Z</time>
      </trkpt>
      <trkpt lat="47.81398" lon="6.86316">
        <ele>771.204058</ele>
        <time>2024-03-25T19:23:54.997Z</time>
      </trkpt>
      <trkpt lat="47.81406" lon="6.86305">
        <ele>769.167336</ele>
        <time>2024-03-25T19:24:08.553Z</time>
      </trkpt>
      <trkpt lat="47.81407" lon="6.86295">
        <ele>767.750313</ele>
        <time>2024-03-25T19:24:19.513Z</time>
      </trkpt>
      <trkpt lat="47.81396" lon="6.86091">
        <ele>740.27809</ele>
        <time>2024-03-25T19:27:38.471Z</time>
      </trkpt>
      <trkpt lat="47.81399" lon="6.86079">
        <ele>738.443797</ele>
        <time>2024-03-25T19:27:53.234Z</time>
      </trkpt>
      <trkpt lat="47.81419" lon="6.86043">
        <ele>732.047527</ele>
        <time>2024-03-25T19:28:41.635Z</time>
      </trkpt>
      <trkpt lat="47.81433" lon="6.86036">
        <ele>729.130435</ele>
        <time>2024-03-25T19:29:00.410Z</time>
      </trkpt>
      <trkpt lat="47.81454" lon="6.86048">
        <ele>724.446755</ele>
        <time>2024-03-25T19:29:36.872Z</time>
      </trkpt>
      <trkpt lat="47.81467" lon="6.86063">
        <ele>721.127451</ele>
        <time>2024-03-25T19:29:57.706Z</time>
      </trkpt>
      <trkpt lat="47.81471" lon="6.86086">
        <ele>718.522668</ele>
        <time>2024-03-25T19:30:23.673Z</time>
      </trkpt>
      <trkpt lat="47.81483" lon="6.86081">
        <ele>716.507037</ele>
        <time>2024-03-25T19:30:40.148Z</time>
      </trkpt>
      <trkpt lat="47.81509" lon="6.86074">
        <ele>712.279348</ele>
        <time>2024-03-25T19:31:18.961Z</time>
      </trkpt>
      <trkpt lat="47.81513" lon="6.8607">
        <ele>711.502711</ele>
        <time>2024-03-25T19:31:25.316Z</time>
      </trkpt>
      <trkpt lat="47.81525" lon="6.86204">
        <ele>696.869941</ele>
        <time>2024-03-25T19:33:22.433Z</time>
      </trkpt>
      <trkpt lat="47.8158" lon="6.86286">
        <ele>685.976794</ele>
        <time>2024-03-25T19:34:59.571Z</time>
      </trkpt>
      <trkpt lat="47.81711" lon="6.86458">
        <ele>664.948988</ele>
        <time>2024-03-25T19:38:35.665Z</time>
      </trkpt>
      <trkpt lat="47.81763" lon="6.86509">
        <ele>658.093429</ele>
        <time>2024-03-25T19:39:51.288Z</time>
      </trkpt>
      <trkpt lat="47.81772" lon="6.86546">
        <ele>655.143849</ele>
        <time>2024-03-25T19:40:24.221Z</time>
      </trkpt>
      <trkpt lat="47.81797" lon="6.86572">
        <ele>651.806989</ele>
        <time>2024-03-25T19:41:00.913Z</time>
      </trkpt>
      <trkpt lat="47.81844" lon="6.86694">
        <ele>643.911504</ele>
        <time>2024-03-25T19:42:51.716Z</time>
      </trkpt>
      <trkpt lat="47.8185" lon="6.86745">
        <ele>641.253102</ele>
        <time>2024-03-25T19:43:31.550Z</time>
      </trkpt>
      <trkpt lat="47.81855" lon="6.86809">
        <ele>637.87754</ele>
        <time>2024-03-25T19:44:20.449Z</time>
      </trkpt>
      <trkpt lat="47.81895" lon="6.86908">
        <ele>632.746427</ele>
        <time>2024-03-25T19:45:47.647Z</time>
      </trkpt>
      <trkpt lat="47.81892" lon="6.86959">
        <ele>630.635655</ele>
        <time>2024-03-25T19:46:26.661Z</time>
      </trkpt>
      <trkpt lat="47.81874" lon="6.87028">
        <ele>627.585733</ele>
        <time>2024-03-25T19:47:22.270Z</time>
      </trkpt>
      <trkpt lat="47.81855" lon="6.8709">
        <ele>624.834243</ele>
        <time>2024-03-25T19:48:13.064Z</time>
      </trkpt>
      <trkpt lat="47.81848" lon="6.87127">
        <ele>623.678532</ele>
        <time>2024-03-25T19:48:43.031Z</time>
      </trkpt>
      <trkpt lat="47.81853" lon="6.87147">
        <ele>623.031286</ele>
        <time>2024-03-25T19:48:59.877Z</time>
      </trkpt>
      <trkpt lat="47.81861" lon="6.87159">
        <ele>622.519147</ele>
        <time>2024-03-25T19:49:13.176Z</time>
      </trkpt>
      <trkpt lat="47.81861" lon="6.87166">
        <ele>622.332222</ele>
        <time>2024-03-25T19:49:18.028Z</time>
      </trkpt>
      <trkpt lat="47.81873" lon="6.8726">
        <ele>619.492744</ele>
        <time>2024-03-25T19:50:29.150Z</time>
      </trkpt>
      <trkpt lat="47.81871" lon="6.87292">
        <ele>618.54684</ele>
        <time>2024-03-25T19:50:51.527Z</time>
      </trkpt>
      <trkpt lat="47.81883" lon="6.87359">
        <ele>617.32132</ele>
        <time>2024-03-25T19:51:40.017Z</time>
      </trkpt>
      <trkpt lat="47.81888" lon="6.87369">
        <ele>617.605572</ele>
        <time>2024-03-25T19:51:48.533Z</time>
      </trkpt>
      <trkpt lat="47.81889" lon="6.87375">
        <ele>617.746584</ele>
        <time>2024-03-25T19:51:52.869Z</time>
      </trkpt>
      <trkpt lat="47.81887" lon="6.87397">
        <ele>618.248433</ele>
        <time>2024-03-25T19:52:08.303Z</time>
      </trkpt>
      <trkpt lat="47.81895" lon="6.87426">
        <ele>618.953343</ele>
        <time>2024-03-25T19:52:29.467Z</time>
      </trkpt>
      <trkpt lat="47.81893" lon="6.87475">
        <ele>620.065811</ele>
        <time>2024-03-25T19:53:05.568Z</time>
      </trkpt>
      <trkpt lat="47.81887" lon="6.87548">
        <ele>621.714839</ele>
        <time>2024-03-25T19:54:02.349Z</time>
      </trkpt>
      <trkpt lat="47.81893" lon="6.87606">
        <ele>623.125973</ele>
        <time>2024-03-25T19:54:50.951Z</time>
      </trkpt>
      <trkpt lat="47.81926" lon="6.87719">
        <ele>634.186041</ele>
        <time>2024-03-25T19:56:43.321Z</time>
      </trkpt>
      <trkpt lat="47.8193" lon="6.87737">
        <ele>635.920213</ele>
        <time>2024-03-25T19:57:03.301Z</time>
      </trkpt>
      <trkpt lat="47.81929" lon="6.87747">
        <ele>636.844991</ele>
        <time>2024-03-25T19:57:14.064Z</time>
      </trkpt>
      <trkpt lat="47.81931" lon="6.8779">
        <ele>640.695695</ele>
        <time>2024-03-25T19:58:02.253Z</time>
      </trkpt>
      <trkpt lat="47.8194" lon="6.87811">
        <ele>642.909443</ele>
        <time>2024-03-25T19:58:31.124Z</time>
      </trkpt>
      <trkpt lat="47.81997" lon="6.87892">
        <ele>655.64623</ele>
        <time>2024-03-25T20:00:59.625Z</time>
      </trkpt>
      <trkpt lat="47.82083" lon="6.87943">
        <ele>672.305719</ele>
        <time>2024-03-25T20:04:01.105Z</time>
      </trkpt>
      <trkpt lat="47.82139" lon="6.88019">
        <ele>683.465191</ele>
        <time>2024-03-25T20:06:04.811Z</time>
      </trkpt>
      <trkpt lat="47.82197" lon="6.88078">
        <ele>691.27683</ele>
        <time>2024-03-25T20:07:39.648Z</time>
      </trkpt>
      <trkpt lat="47.82215" lon="6.88088">
        <ele>693.515705</ele>
        <time>2024-03-25T20:08:05.566Z</time>
      </trkpt>
      <trkpt lat="47.82234" lon="6.88064">
        <ele>696.2206</ele>
        <time>2024-03-25T20:08:37.809Z</time>
      </trkpt>
      <trkpt lat="47.82269" lon="6.88063">
        <ele>700.11684</ele>
        <time>2024-03-25T20:09:22.844Z</time>
      </trkpt>
      <trkpt lat="47.82288" lon="6.88075">
        <ele>702.41198</ele>
        <time>2024-03-25T20:09:48.408Z</time>
      </trkpt>
      <trkpt lat="47.82312" lon="6.88107">
        <ele>705.918125</ele>
        <time>2024-03-25T20:10:30.005Z</time>
      </trkpt>
      <trkpt lat="47.82327" lon="6.88119">
        <ele>707.822358</ele>
        <time>2024-03-25T20:10:54.719Z</time>
      </trkpt>
      <trkpt lat="47.82352" lon="6.88156">
        <ele>711.719191</ele>
        <time>2024-03-25T20:11:42.314Z</time>
      </trkpt>
      <trkpt lat="47.82364" lon="6.88206">
        <ele>715.591468</ele>
        <time>2024-03-25T20:12:32.693Z</time>
      </trkpt>
      <trkpt lat="47.82407" lon="6.88284">
        <ele>724.188357</ele>
        <time>2024-03-25T20:14:20.222Z</time>
      </trkpt>
      <trkpt lat="47.8242" lon="6.88332">
        <ele>729.159846</ele>
        <time>2024-03-25T20:15:15.522Z</time>
      </trkpt>
      <trkpt lat="47.82437" lon="6.88361">
        <ele>732.890854</ele>
        <time>2024-03-25T20:15:57.035Z</time>
      </trkpt>
      <trkpt lat="47.82463" lon="6.88384">
        <ele>737.25615</ele>
        <time>2024-03-25T20:16:46.684Z</time>
      </trkpt>
      <trkpt lat="47.82504" lon="6.88402">
        <ele>743.489906</ele>
        <time>2024-03-25T20:17:57.767Z</time>
      </trkpt>
      <trkpt lat="47.82539" lon="6.88458">
        <ele>750.695339</ele>
        <time>2024-03-25T20:19:17.847Z</time>
      </trkpt>
      <trkpt lat="47.82583" lon="6.88572">
        <ele>763.031874</ele>
        <time>2024-03-25T20:21:34.712Z</time>
      </trkpt>
      <trkpt lat="47.8261" lon="6.88585">
        <ele>766.966761</ele>
        <time>2024-03-25T20:22:20.053Z</time>
      </trkpt>
      <trkpt lat="47.82629" lon="6.88585">
        <ele>769.603911</ele>
        <time>2024-03-25T20:22:50.670Z</time>
      </trkpt>
      <trkpt lat="47.8265" lon="6.88621">
        <ele>774.501445</ele>
        <time>2024-03-25T20:23:39.520Z</time>
      </trkpt>
      <trkpt lat="47.82672" lon="6.88636">
        <ele>778.252335</ele>
        <time>2024-03-25T20:24:14.757Z</time>
      </trkpt>
      <trkpt lat="47.8274" lon="6.8865">
        <ele>788.848431</ele>
        <time>2024-03-25T20:26:00.979Z</time>
      </trkpt>
      <trkpt lat="47.82746" lon="6.88652">
        <ele>789.84303</ele>
        <time>2024-03-25T20:26:11.362Z</time>
      </trkpt>
      <trkpt lat="47.82777" lon="6.88675">
        <ele>795.136587</ele>
        <time>2024-03-25T20:27:11.633Z</time>
      </trkpt>
      <trkpt lat="47.82804" lon="6.88707">
        <ele>802.157909</ele>
        <time>2024-03-25T20:28:21.640Z</time>
      </trkpt>
      <trkpt lat="47.82815" lon="6.88748">
        <ele>809.620892</ele>
        <time>2024-03-25T20:29:23.107Z</time>
      </trkpt>
      <trkpt lat="47.82832" lon="6.88769">
        <ele>815.341306</ele>
        <time>2024-03-25T20:30:06.413Z</time>
      </trkpt>
      <trkpt lat="47.82834" lon="6.88819">
        <ele>824.014282</ele>
        <time>2024-03-25T20:31:21.781Z</time>
      </trkpt>
      <trkpt lat="47.82832" lon="6.88829">
        <ele>825.700763</ele>
        <time>2024-03-25T20:31:36.403Z</time>
      </trkpt>
      <trkpt lat="47.82823" lon="6.88885">
        <ele>835.630776</ele>
        <time>2024-03-25T20:33:11.653Z</time>
      </trkpt>
      <trkpt lat="47.82818" lon="6.88895">
        <ele>837.733142</ele>
        <time>2024-03-25T20:33:35.951Z</time>
      </trkpt>
      <trkpt lat="47.82759" lon="6.88921">
        <ele>856.759008</ele>
        <time>2024-03-25T20:36:25.194Z</time>
      </trkpt>
      <trkpt lat="47.82863" lon="6.89027">
        <ele>899.548168</ele>
        <time>2024-03-25T20:42:22.809Z</time>
      </trkpt>
      <trkpt lat="47.82923" lon="6.89049">
        <ele>917.144297</ele>
        <time>2024-03-25T20:45:11.518Z</time>
      </trkpt>
      <trkpt lat="47.82949" lon="6.89099">
        <ele>928.309582</ele>
        <time>2024-03-25T20:46:57.173Z</time>
      </trkpt>
      <trkpt lat="47.83003" lon="6.89177">
        <ele>948.007385</ele>
        <time>2024-03-25T20:49:39.495Z</time>
      </trkpt>
      <trkpt lat="47.8298" lon="6.89186">
        <ele>953.85035</ele>
        <time>2024-03-25T20:50:20.125Z</time>
      </trkpt>
      <trkpt lat="47.82977" lon="6.89198">
        <ele>955.527018</ele>
        <time>2024-03-25T20:50:37.204Z</time>
      </trkpt>
      <trkpt lat="47.83031" lon="6.89269">
        <ele>969.465398</ele>
        <time>2024-03-25T20:52:48.665Z</time>
      </trkpt>
      <trkpt lat="47.8297" lon="6.89289">
        <ele>981.408555</ele>
        <time>2024-03-25T20:54:42.214Z</time>
      </trkpt>
      <trkpt lat="47.82968" lon="6.893">
        <ele>983.000249</ele>
        <time>2024-03-25T20:55:03.609Z</time>
      </trkpt>
      <trkpt lat="47.83035" lon="6.89376">
        <ele>999.286227</ele>
        <time>2024-03-25T20:57:56.500Z</time>
      </trkpt>
      <trkpt lat="47.83052" lon="6.89403">
        <ele>1004.177089</ele>
        <time>2024-03-25T20:58:45.768Z</time>
      </trkpt>
      <trkpt lat="47.83068" lon="6.89415">
        <ele>1007.700863</ele>
        <time>2024-03-25T20:59:17.688Z</time>
      </trkpt>
      <trkpt lat="47.83096" lon="6.89406">
        <ele>1013.158467</ele>
        <time>2024-03-25T21:00:18.992Z</time>
      </trkpt>
      <trkpt lat="47.83172" lon="6.89357">
        <ele>1025.136091</ele>
        <time>2024-03-25T21:02:41.887Z</time>
      </trkpt>
      <trkpt lat="47.83183" lon="6.8935">
        <ele>1026.196921</ele>
        <time>2024-03-25T21:03:02.587Z</time>
      </trkpt>
      <trkpt lat="47.83225" lon="6.89314">
        <ele>1030.315421</ele>
        <time>2024-03-25T21:04:04.992Z</time>
      </trkpt>
      <trkpt lat="47.83254" lon="6.8924">
        <ele>1035.214561</ele>
        <time>2024-03-25T21:05:07.316Z</time>
      </trkpt>
      <trkpt lat="47.83261" lon="6.89206">
        <ele>1037.302184</ele>
        <time>2024-03-25T21:05:34.002Z</time>
      </trkpt>
      <trkpt lat="47.83254" lon="6.89108">
        <ele>1040.952004</ele>
        <time>2024-03-25T21:06:50.186Z</time>
      </trkpt>
      <trkpt lat="47.83267" lon="6.89009">
        <ele>1044.66277</ele>
        <time>2024-03-25T21:08:11.035Z</time>
      </trkpt>
      <trkpt lat="47.833" lon="6.88847">
        <ele>1050.396807</ele>
        <time>2024-03-25T21:10:34.163Z</time>
      </trkpt>
      <trkpt lat="47.83247" lon="6.88722">
        <ele>1055.094775</ele>
        <time>2024-03-25T21:12:29.061Z</time>
      </trkpt>
      <trkpt lat="47.83248" lon="6.8867">
        <ele>1055.427121</ele>
        <time>2024-03-25T21:13:04.012Z</time>
      </trkpt>
      <trkpt lat="47.83212" lon="6.88626">
        <ele>1054.689402</ele>
        <time>2024-03-25T21:13:53.403Z</time>
      </trkpt>
      <trkpt lat="47.83188" lon="6.88566">
        <ele>1053.956141</ele>
        <time>2024-03-25T21:14:42.897Z</time>
      </trkpt>
      <trkpt lat="47.83149" lon="6.88508">
        <ele>1053.070967</ele>
        <time>2024-03-25T21:15:42.084Z</time>
      </trkpt>
      <trkpt lat="47.83119" lon="6.88415">
        <ele>1053.357969</ele>
        <time>2024-03-25T21:16:52.191Z</time>
      </trkpt>
      <trkpt lat="47.83115" lon="6.88386">
        <ele>1053.503675</ele>
        <time>2024-03-25T21:17:12.258Z</time>
      </trkpt>
      <trkpt lat="47.83115" lon="6.88373">
        <ele>1053.567801</ele>
        <time>2024-03-25T21:17:20.952Z</time>
      </trkpt>
      <trkpt lat="47.83114" lon="6.8837">
        <ele>1053.587349</ele>
        <time>2024-03-25T21:17:23.622Z</time>
      </trkpt>
      <trkpt lat="47.8313" lon="6.88368">
        <ele>1053.704469</ele>
        <time>2024-03-25T21:17:39.941Z</time>
      </trkpt>
      <trkpt lat="47.83133" lon="6.88337">
        <ele>1053.862992</ele>
        <time>2024-03-25T21:18:02.145Z</time>
      </trkpt>
      <trkpt lat="47.83101" lon="6.88262">
        <ele>1054.606692</ele>
        <time>2024-03-25T21:19:06.354Z</time>
      </trkpt>
      <trkpt lat="47.83086" lon="6.88211">
        <ele>1056.835592</ele>
        <time>2024-03-25T21:19:48.263Z</time>
      </trkpt>
      <trkpt lat="47.83076" lon="6.88156">
        <ele>1059.089485</ele>
        <time>2024-03-25T21:20:32.285Z</time>
      </trkpt>
      <trkpt lat="47.83078" lon="6.88145">
        <ele>1059.553968</ele>
        <time>2024-03-25T21:20:41.531Z</time>
      </trkpt>
      <trkpt lat="47.83103" lon="6.88122">
        <ele>1061.300031</ele>
        <time>2024-03-25T21:21:19.204Z</time>
      </trkpt>
      <trkpt lat="47.83115" lon="6.87986">
        <ele>1068.233097</ele>
        <time>2024-03-25T21:23:16.490Z</time>
      </trkpt>
      <trkpt lat="47.83113" lon="6.8795">
        <ele>1070.758949</ele>
        <time>2024-03-25T21:23:47.633Z</time>
      </trkpt>
      <trkpt lat="47.83131" lon="6.87939">
        <ele>1072.829192</ele>
        <time>2024-03-25T21:24:16.365Z</time>
      </trkpt>
      <trkpt lat="47.83137" lon="6.87916">
        <ele>1074.665726</ele>
        <time>2024-03-25T21:24:38.747Z</time>
      </trkpt>
      <trkpt lat="47.83136" lon="6.87899">
        <ele>1075.872077</ele>
        <time>2024-03-25T21:24:55.199Z</time>
      </trkpt>
      <trkpt lat="47.83111" lon="6.87816">
        <ele>1082.372548</ele>
        <time>2024-03-25T21:26:25.686Z</time>
      </trkpt>
      <trkpt lat="47.83051" lon="6.87686">
        <ele>1091.703633</ele>
        <time>2024-03-25T21:28:50.115Z</time>
      </trkpt>
      <trkpt lat="47.8305" lon="6.87663">
        <ele>1092.984705</ele>
        <time>2024-03-25T21:29:08.464Z</time>
      </trkpt>
      <trkpt lat="47.83043" lon="6.87642">
        <ele>1094.380305</ele>
        <time>2024-03-25T21:29:29.829Z</time>
      </trkpt>
      <trkpt lat="47.83036" lon="6.87619">
        <ele>1095.783342</ele>
        <time>2024-03-25T21:29:49.280Z</time>
      </trkpt>
      <trkpt lat="47.83046" lon="6.87569">
        <ele>1098.773878</ele>
        <time>2024-03-25T21:30:31.387Z</time>
      </trkpt>
      <trkpt lat="47.83042" lon="6.87548">
        <ele>1099.408109</ele>
        <time>2024-03-25T21:30:48.980Z</time>
      </trkpt>
      <trkpt lat="47.83013" lon="6.87498">
        <ele>1099.807855</ele>
        <time>2024-03-25T21:31:39.344Z</time>
      </trkpt>
      <trkpt lat="47.82995" lon="6.87442">
        <ele>1100.176185</ele>
        <time>2024-03-25T21:32:22.540Z</time>
      </trkpt>
      <trkpt lat="47.82972" lon="6.87408">
        <ele>1100.463269</ele>
        <time>2024-03-25T21:32:54.929Z</time>
      </trkpt>
      <trkpt lat="47.8293" lon="6.87381">
        <ele>1100.873266</ele>
        <time>2024-03-25T21:33:41.581Z</time>
      </trkpt>
      <trkpt lat="47.8292" lon="6.8735">
        <ele>1099.429675</ele>
        <time>2024-03-25T21:34:05.592Z</time>
      </trkpt>
      <trkpt lat="47.8292" lon="6.87336">
        <ele>1098.511827</ele>
        <time>2024-03-25T21:34:15.147Z</time>
      </trkpt>
      <trkpt lat="47.82943" lon="6.87274">
        <ele>1093.745438</ele>
        <time>2024-03-25T21:35:11.186Z</time>
      </trkpt>
      <trkpt lat="47.82942" lon="6.87129">
        <ele>1084.163475</ele>
        <time>2024-03-25T21:37:09.599Z</time>
      </trkpt>
      <trkpt lat="47.82901" lon="6.87125">
        <ele>1077.504028</ele>
        <time>2024-03-25T21:38:08.250Z</time>
      </trkpt>
      <trkpt lat="47.82883" lon="6.87115">
        <ele>1073.980797</ele>
        <time>2024-03-25T21:38:36.551Z</time>
      </trkpt>
      <trkpt lat="47.82857" lon="6.87076">
        <ele>1067.359804</ele>
        <time>2024-03-25T21:39:29.050Z</time>
      </trkpt>
      <trkpt lat="47.8284" lon="6.87068">
        <ele>1064.020957</ele>
        <time>2024-03-25T21:39:54.362Z</time>
      </trkpt>
      <trkpt lat="47.82808" lon="6.87069">
        <ele>1058.223393</ele>
        <time>2024-03-25T21:40:41.416Z</time>
      </trkpt>
      <trkpt lat="47.82812" lon="6.87045">
        <ele>1055.095587</ele>
        <time>2024-03-25T21:41:07.714Z</time>
      </trkpt>
      <trkpt lat="47.82809" lon="6.86919">
        <ele>1043.241373</ele>
        <time>2024-03-25T21:42:57.359Z</time>
      </trkpt>
      <trkpt lat="47.8282" lon="6.86873">
        <ele>1039.145446</ele>
        <time>2024-03-25T21:43:39.967Z</time>
      </trkpt>
      <trkpt lat="47.82817" lon="6.86792">
        <ele>1032.36003</ele>
        <time>2024-03-25T21:44:45.538Z</time>
      </trkpt>
      <trkpt lat="47.82722" lon="6.86462">
        <ele>1017.610169</ele>
        <time>2024-03-25T21:49:16.227Z</time>
      </trkpt>
      <trkpt lat="47.8267" lon="6.8636">
        <ele>1017.638823</ele>
        <time>2024-03-25T21:50:44.115Z</time>
      </trkpt>
      <trkpt lat="47.82652" lon="6.86334">
        <ele>1017.647009</ele>
        <time>2024-03-25T21:51:09.944Z</time>
      </trkpt>
      <trkpt lat="47.82646" lon="6.86326">
        <ele>1017.649805</ele>
        <time>2024-03-25T21:51:19.846Z</time>
      </trkpt>
      <trkpt lat="47.82637" lon="6.86278">
        <ele>1017.75147</ele>
        <time>2024-03-25T21:51:56.849Z</time>
      </trkpt>
      <trkpt lat="47.82623" lon="6.86238">
        <ele>1019.947108</ele>
        <time>2024-03-25T21:52:31.020Z</time>
      </trkpt>
      <trkpt lat="47.82609" lon="6.86176">
        <ele>1023.174906</ele>
        <time>2024-03-25T21:53:22.875Z</time>
      </trkpt>
      <trkpt lat="47.82594" lon="6.86173">
        <ele>1024.295085</ele>
        <time>2024-03-25T21:53:41.446Z</time>
      </trkpt>
      <trkpt lat="47.82577" lon="6.86188">
        <ele>1025.766714</ele>
        <time>2024-03-25T21:54:06.469Z</time>
      </trkpt>
      <trkpt lat="47.8255" lon="6.86162">
        <ele>1028.106875</ele>
        <time>2024-03-25T21:54:46.485Z</time>
      </trkpt>
      <trkpt lat="47.82526" lon="6.8613">
        <ele>1030.460812</ele>
        <time>2024-03-25T21:55:28.319Z</time>
      </trkpt>
      <trkpt lat="47.82515" lon="6.86123">
        <ele>1032.143782</ele>
        <time>2024-03-25T21:55:48.051Z</time>
      </trkpt>
      <trkpt lat="47.82529" lon="6.86096">
        <ele>1036.330971</ele>
        <time>2024-03-25T21:56:25.515Z</time>
      </trkpt>
      <trkpt lat="47.82525" lon="6.86082">
        <ele>1038.176398</ele>
        <time>2024-03-25T21:56:43.652Z</time>
      </trkpt>
      <trkpt lat="47.8246" lon="6.85973">
        <ele>1055.881453</ele>
        <time>2024-03-25T21:59:50.926Z</time>
      </trkpt>
      <trkpt lat="47.82441" lon="6.8595">
        <ele>1060.27803</ele>
        <time>2024-03-25T22:00:42.732Z</time>
      </trkpt>
      <trkpt lat="47.82416" lon="6.85931">
        <ele>1065.027008</ele>
        <time>2024-03-25T22:01:41.740Z</time>
      </trkpt>
      <trkpt lat="47.82385" lon="6.85929">
        <ele>1069.728342</ele>
        <time>2024-03-25T22:02:45.260Z</time>
      </trkpt>
      <trkpt lat="47.82312" lon="6.85893">
        <ele>1081.364302</ele>
        <time>2024-03-25T22:05:10.137Z</time>
      </trkpt>
      <trkpt lat="47.82272" lon="6.85856">
        <ele>1088.450389</ele>
        <time>2024-03-25T22:06:15.903Z</time>
      </trkpt>
      <trkpt lat="47.82213" lon="6.85862">
        <ele>1090.300858</ele>
        <time>2024-03-25T22:07:15.074Z</time>
      </trkpt>
      <trkpt lat="47.82207" lon="6.85863">
        <ele>1090.265918</ele>
        <time>2024-03-25T22:07:22.790Z</time>
      </trkpt>
      <trkpt lat="47.82197" lon="6.85856">
        <ele>1090.20434</ele>
        <time>2024-03-25T22:07:35.224Z</time>
      </trkpt>
      <trkpt lat="47.82189" lon="6.85843">
        <ele>1090.138595</ele>
        <time>2024-03-25T22:07:48.221Z</time>
      </trkpt>
      <trkpt lat="47.82172" lon="6.85838">
        <ele>1090.039148</ele>
        <time>2024-03-25T22:08:06.240Z</time>
      </trkpt>
      <trkpt lat="47.82166" lon="6.85815">
        <ele>1089.944923</ele>
        <time>2024-03-25T22:08:23.846Z</time>
      </trkpt>
      <trkpt lat="47.82151" lon="6.85817">
        <ele>1089.864746</ele>
        <time>2024-03-25T22:08:39.523Z</time>
      </trkpt>
      <trkpt lat="47.8215" lon="6.85804">
        <ele>1089.814075</ele>
        <time>2024-03-25T22:08:49.092Z</time>
      </trkpt>
      <trkpt lat="47.82142" lon="6.85807">
        <ele>1089.764037</ele>
        <time>2024-03-25T22:08:58.150Z</time>
      </trkpt>
      <trkpt lat="47.82135" lon="6.85794">
        <ele>1089.702702</ele>
        <time>2024-03-25T22:09:12.262Z</time>
      </trkpt>
      <trkpt lat="47.8214" lon="6.85764">
        <ele>1089.586006</ele>
        <time>2024-03-25T22:09:34.525Z</time>
      </trkpt>
      <trkpt lat="47.82163" lon="6.85731">
        <ele>1088.949395</ele>
        <time>2024-03-25T22:10:08.933Z</time>
      </trkpt>
      <trkpt lat="47.82177" lon="6.85719">
        <ele>1088.534062</ele>
        <time>2024-03-25T22:10:28.163Z</time>
      </trkpt>
      <trkpt lat="47.8222" lon="6.85705">
        <ele>1087.461376</ele>
        <time>2024-03-25T22:11:15.242Z</time>
      </trkpt>
      <trkpt lat="47.82251" lon="6.8568">
        <ele>1086.587433</ele>
        <time>2024-03-25T22:11:53.670Z</time>
      </trkpt>
      <trkpt lat="47.82286" lon="6.85578">
        <ele>1085.588457</ele>
        <time>2024-03-25T22:13:11.943Z</time>
      </trkpt>
      <trkpt lat="47.82289" lon="6.85478">
        <ele>1087.579662</ele>
        <time>2024-03-25T22:14:23.017Z</time>
      </trkpt>
      <trkpt lat="47.82298" lon="6.85449">
        <ele>1088.199637</ele>
        <time>2024-03-25T22:14:46.337Z</time>
      </trkpt>
      <trkpt lat="47.82353" lon="6.85408">
        <ele>1090.029513</ele>
        <time>2024-03-25T22:15:58.426Z</time>
      </trkpt>
      <trkpt lat="47.8236" lon="6.85396">
        <ele>1090.354063</ele>
        <time>2024-03-25T22:16:10.753Z</time>
      </trkpt>
      <trkpt lat="47.82409" lon="6.85369">
        <ele>1094.392353</ele>
        <time>2024-03-25T22:17:12.660Z</time>
      </trkpt>
      <trkpt lat="47.82445" lon="6.85373">
        <ele>1097.356662</ele>
        <time>2024-03-25T22:18:10.326Z</time>
      </trkpt>
      <trkpt lat="47.82459" lon="6.85369">
        <ele>1098.441748</ele>
        <time>2024-03-25T22:18:31.520Z</time>
      </trkpt>
      <trkpt lat="47.82539" lon="6.85308">
        <ele>1105.697562</ele>
        <time>2024-03-25T22:21:03.824Z</time>
      </trkpt>
      <trkpt lat="47.82549" lon="6.85276">
        <ele>1107.649071</ele>
        <time>2024-03-25T22:21:43.724Z</time>
      </trkpt>
      <trkpt lat="47.82556" lon="6.85232">
        <ele>1110.158191</ele>
        <time>2024-03-25T22:22:33.809Z</time>
      </trkpt>
      <trkpt lat="47.82542" lon="6.85151">
        <ele>1114.745337</ele>
        <time>2024-03-25T22:24:01.877Z</time>
      </trkpt>
      <trkpt lat="47.8253" lon="6.8512">
        <ele>1116.724066</ele>
        <time>2024-03-25T22:24:39.525Z</time>
      </trkpt>
      <trkpt lat="47.82522" lon="6.85081">
        <ele>1118.977752</ele>
        <time>2024-03-25T22:25:22.648Z</time>
      </trkpt>
      <trkpt lat="47.8252" lon="6.85038">
        <ele>1120.247419</ele>
        <time>2024-03-25T22:26:07.074Z</time>
      </trkpt>
      <trkpt lat="47.82499" lon="6.84967">
        <ele>1121.809873</ele>
        <time>2024-03-25T22:27:23.599Z</time>
      </trkpt>
      <trkpt lat="47.82502" lon="6.84918">
        <ele>1122.82489</ele>
        <time>2024-03-25T22:28:10.140Z</time>
      </trkpt>
      <trkpt lat="47.8249" lon="6.84859">
        <ele>1124.071745</ele>
        <time>2024-03-25T22:29:03.699Z</time>
      </trkpt>
      <trkpt lat="47.82536" lon="6.84834">
        <ele>1124.6078</ele>
        <time>2024-03-25T22:30:05.934Z</time>
      </trkpt>
      <trkpt lat="47.82552" lon="6.84802">
        <ele>1123.872601</ele>
        <time>2024-03-25T22:30:39.671Z</time>
      </trkpt>
      <trkpt lat="47.82581" lon="6.8478">
        <ele>1122.983181</ele>
        <time>2024-03-25T22:31:21.296Z</time>
      </trkpt>
      <trkpt lat="47.82596" lon="6.84758">
        <ele>1122.394943</ele>
        <time>2024-03-25T22:31:49.291Z</time>
      </trkpt>
      <trkpt lat="47.82606" lon="6.84737">
        <ele>1121.916751</ele>
        <time>2024-03-25T22:32:12.045Z</time>
      </trkpt>
      <trkpt lat="47.82612" lon="6.84725">
        <ele>1121.656145</ele>
        <time>2024-03-25T22:32:25.199Z</time>
      </trkpt>
      <trkpt lat="47.82613" lon="6.84664">
        <ele>1120.51727</ele>
        <time>2024-03-25T22:33:21.584Z</time>
      </trkpt>
      <trkpt lat="47.82618" lon="6.84636">
        <ele>1119.867919</ele>
        <time>2024-03-25T22:33:47.632Z</time>
      </trkpt>
      <trkpt lat="47.8263" lon="6.84618">
        <ele>1118.88937</ele>
        <time>2024-03-25T22:34:11.196Z</time>
      </trkpt>
      <trkpt lat="47.82681" lon="6.8461">
        <ele>1115.850522</ele>
        <time>2024-03-25T22:35:24.467Z</time>
      </trkpt>
      <trkpt lat="47.82754" lon="6.84641">
        <ele>1111.341473</ele>
        <time>2024-03-25T22:37:12.349Z</time>
      </trkpt>
      <trkpt lat="47.82762" lon="6.84632">
        <ele>1110.77948</ele>
        <time>2024-03-25T22:37:25.563Z</time>
      </trkpt>
      <trkpt lat="47.82775" lon="6.84651">
        <ele>1109.685766</ele>
        <time>2024-03-25T22:37:51.531Z</time>
      </trkpt>
      <trkpt lat="47.82823" lon="6.84676">
        <ele>1108.737794</ele>
        <time>2024-03-25T22:39:01.829Z</time>
      </trkpt>
      <trkpt lat="47.82847" lon="6.84671">
        <ele>1108.358871</ele>
        <time>2024-03-25T22:39:33.490Z</time>
      </trkpt>
      <trkpt lat="47.82857" lon="6.8466">
        <ele>1108.150374</ele>
        <time>2024-03-25T22:39:50.569Z</time>
      </trkpt>
      <trkpt lat="47.82889" lon="6.84663">
        <ele>1107.638892</ele>
        <time>2024-03-25T22:40:31.069Z</time>
      </trkpt>
      <trkpt lat="47.82934" lon="6.84613">
        <ele>1106.747427</ele>
        <time>2024-03-25T22:41:45.804Z</time>
      </trkpt>
      <trkpt lat="47.82944" lon="6.84556">
        <ele>1106.309856</ele>
        <time>2024-03-25T22:42:38.240Z</time>
      </trkpt>
      <trkpt lat="47.82996" lon="6.84513">
        <ele>1105.717481</ele>
        <time>2024-03-25T22:43:52.854Z</time>
      </trkpt>
      <trkpt lat="47.83014" lon="6.84482">
        <ele>1105.442684</ele>
        <time>2024-03-25T22:44:28.563Z</time>
      </trkpt>
      <trkpt lat="47.8303" lon="6.84474">
        <ele>1105.274683</ele>
        <time>2024-03-25T22:44:51.008Z</time>
      </trkpt>
      <trkpt lat="47.83082" lon="6.84472">
        <ele>1104.471914</ele>
        <time>2024-03-25T22:46:00.546Z</time>
      </trkpt>
      <trkpt lat="47.83105" lon="6.84465">
        <ele>1103.497592</ele>
        <time>2024-03-25T22:46:32.573Z</time>
      </trkpt>
      <trkpt lat="47.83134" lon="6.84444">
        <ele>1102.177385</ele>
        <time>2024-03-25T22:47:16.273Z</time>
      </trkpt>
      <trkpt lat="47.8317" lon="6.84433">
        <ele>1100.688612</ele>
        <time>2024-03-25T22:48:05.893Z</time>
      </trkpt>
      <trkpt lat="47.83179" lon="6.84423">
        <ele>1100.205095</ele>
        <time>2024-03-25T22:48:21.842Z</time>
      </trkpt>
      <trkpt lat="47.83185" lon="6.84406">
        <ele>1099.658561</ele>
        <time>2024-03-25T22:48:39.938Z</time>
      </trkpt>
      <trkpt lat="47.83184" lon="6.84386">
        <ele>1099.112092</ele>
        <time>2024-03-25T22:48:57.724Z</time>
      </trkpt>
      <trkpt lat="47.83195" lon="6.84263">
        <ele>1094.493375</ele>
        <time>2024-03-25T22:50:51.285Z</time>
      </trkpt>
      <trkpt lat="47.83194" lon="6.84209">
        <ele>1091.997405</ele>
        <time>2024-03-25T22:51:41.561Z</time>
      </trkpt>
      <trkpt lat="47.83197" lon="6.84189">
        <ele>1091.047225</ele>
        <time>2024-03-25T22:52:00.728Z</time>
      </trkpt>
      <trkpt lat="47.83206" lon="6.84173">
        <ele>1090.079515</ele>
        <time>2024-03-25T22:52:20.423Z</time>
      </trkpt>
      <trkpt lat="47.83198" lon="6.84142">
        <ele>1088.543036</ele>
        <time>2024-03-25T22:52:52.194Z</time>
      </trkpt>
      <trkpt lat="47.83195" lon="6.84117">
        <ele>1087.348392</ele>
        <time>2024-03-25T22:53:12.427Z</time>
      </trkpt>
      <trkpt lat="47.83206" lon="6.8405">
        <ele>1083.201731</ele>
        <time>2024-03-25T22:54:07.413Z</time>
      </trkpt>
      <trkpt lat="47.83252" lon="6.84027">
        <ele>1076.262982</ele>
        <time>2024-03-25T22:55:09.152Z</time>
      </trkpt>
      <trkpt lat="47.83253" lon="6.84021">
        <ele>1075.707563</ele>
        <time>2024-03-25T22:55:14.035Z</time>
      </trkpt>
      <trkpt lat="47.83294" lon="6.84025">
        <ele>1069.892023</ele>
        <time>2024-03-25T22:56:06.505Z</time>
      </trkpt>
      <trkpt lat="47.83316" lon="6.84014">
        <ele>1066.471384</ele>
        <time>2024-03-25T22:56:38.071Z</time>
      </trkpt>
      <trkpt lat="47.83314" lon="6.84035">
        <ele>1064.394899</ele>
        <time>2024-03-25T22:56:56.648Z</time>
      </trkpt>
      <trkpt lat="47.83353" lon="6.84022">
        <ele>1058.568599</ele>
        <time>2024-03-25T22:57:48.898Z</time>
      </trkpt>
      <trkpt lat="47.83366" lon="6.84025">
        <ele>1056.489241</ele>
        <time>2024-03-25T22:58:06.245Z</time>
      </trkpt>
      <trkpt lat="47.83421" lon="6.84056">
        <ele>1046.769882</ele>
        <time>2024-03-25T22:59:25.615Z</time>
      </trkpt>
      <trkpt lat="47.83456" lon="6.84087">
        <ele>1039.96452</ele>
        <time>2024-03-25T23:00:19.990Z</time>
      </trkpt>
      <trkpt lat="47.83478" lon="6.84099">
        <ele>1036.137079</ele>
        <time>2024-03-25T23:00:51.133Z</time>
      </trkpt>
      <trkpt lat="47.83489" lon="6.84117">
        <ele>1033.413255</ele>
        <time>2024-03-25T23:01:11.952Z</time>
      </trkpt>
      <trkpt lat="47.83509" lon="6.84126">
        <ele>1029.989346</ele>
        <time>2024-03-25T23:01:38.990Z</time>
      </trkpt>
      <trkpt lat="47.8355" lon="6.8419">
        <ele>1021.23656</ele>
        <time>2024-03-25T23:02:55.650Z</time>
      </trkpt>
      <trkpt lat="47.83573" lon="6.84196">
        <ele>1017.815168</ele>
        <time>2024-03-25T23:03:26.227Z</time>
      </trkpt>
      <trkpt lat="47.83601" lon="6.84236">
        <ele>1012.076538</ele>
        <time>2024-03-25T23:04:15.851Z</time>
      </trkpt>
      <trkpt lat="47.83615" lon="6.84237">
        <ele>1009.886961</ele>
        <time>2024-03-25T23:04:35.188Z</time>
      </trkpt>
      <trkpt lat="47.83636" lon="6.84279">
        <ele>1004.733962</ele>
        <time>2024-03-25T23:05:18.984Z</time>
      </trkpt>
      <trkpt lat="47.83666" lon="6.8431">
        <ele>999.509432</ele>
        <time>2024-03-25T23:06:04.452Z</time>
      </trkpt>
      <trkpt lat="47.83708" lon="6.84377">
        <ele>990.820474</ele>
        <time>2024-03-25T23:07:22.956Z</time>
      </trkpt>
      <trkpt lat="47.83729" lon="6.8438">
        <ele>987.984257</ele>
        <time>2024-03-25T23:07:48.806Z</time>
      </trkpt>
      <trkpt lat="47.83735" lon="6.84392">
        <ele>986.502913</ele>
        <time>2024-03-25T23:08:02.796Z</time>
      </trkpt>
      <trkpt lat="47.83745" lon="6.84439">
        <ele>981.94333</ele>
        <time>2024-03-25T23:08:44.791Z</time>
      </trkpt>
      <trkpt lat="47.83776" lon="6.8448">
        <ele>975.806565</ele>
        <time>2024-03-25T23:09:37.679Z</time>
      </trkpt>
      <trkpt lat="47.83804" lon="6.84552">
        <ele>966.689308</ele>
        <time>2024-03-25T23:10:48.952Z</time>
      </trkpt>
      <trkpt lat="47.83836" lon="6.84599">
        <ele>959.450173</ele>
        <time>2024-03-25T23:11:47.007Z</time>
      </trkpt>
      <trkpt lat="47.83895" lon="6.84656">
        <ele>947.711033</ele>
        <time>2024-03-25T23:13:28.709Z</time>
      </trkpt>
      <trkpt lat="47.83922" lon="6.847">
        <ele>939.779083</ele>
        <time>2024-03-25T23:14:21.763Z</time>
      </trkpt>
      <trkpt lat="47.83956" lon="6.84761">
        <ele>929.033535</ele>
        <time>2024-03-25T23:15:30.987Z</time>
      </trkpt>
      <trkpt lat="47.83966" lon="6.8478">
        <ele>925.777533</ele>
        <time>2024-03-25T23:15:56.375Z</time>
      </trkpt>
      <trkpt lat="47.83994" lon="6.84815">
        <ele>918.307247</ele>
        <time>2024-03-25T23:16:51.405Z</time>
      </trkpt>
      <trkpt lat="47.84024" lon="6.84823">
        <ele>911.895481</ele>
        <time>2024-03-25T23:17:38.566Z</time>
      </trkpt>
      <trkpt lat="47.84052" lon="6.8485">
        <ele>901.998432</ele>
        <time>2024-03-25T23:18:39.535Z</time>
      </trkpt>
      <trkpt lat="47.8409" lon="6.84865">
        <ele>890.018166</ele>
        <time>2024-03-25T23:19:51.260Z</time>
      </trkpt>
      <trkpt lat="47.84119" lon="6.84874">
        <ele>881.137958</ele>
        <time>2024-03-25T23:20:44.902Z</time>
      </trkpt>
      <trkpt lat="47.84132" lon="6.84914">
        <ele>872.170469</ele>
        <time>2024-03-25T23:21:39.390Z</time>
      </trkpt>
      <trkpt lat="47.84155" lon="6.84928">
        <ele>864.35757</ele>
        <time>2024-03-25T23:22:22.369Z</time>
      </trkpt>
      <trkpt lat="47.84164" lon="6.84932">
        <ele>861.597384</ele>
        <time>2024-03-25T23:22:46.755Z</time>
      </trkpt>
      <trkpt lat="47.84182" lon="6.84959">
        <ele>853.347317</ele>
        <time>2024-03-25T23:23:35.609Z</time>
      </trkpt>
      <trkpt lat="47.84201" lon="6.8497">
        <ele>846.297633</ele>
        <time>2024-03-25T23:24:26.003Z</time>
      </trkpt>
      <trkpt lat="47.84285" lon="6.8499">
        <ele>817.427654</ele>
        <time>2024-03-25T23:27:20.122Z</time>
      </trkpt>
      <trkpt lat="47.84332" lon="6.85037">
        <ele>798.113142</ele>
        <time>2024-03-25T23:29:10.308Z</time>
      </trkpt>
      <trkpt lat="47.84379" lon="6.85096">
        <ele>786.221344</ele>
        <time>2024-03-25T23:30:51.681Z</time>
      </trkpt>
      <trkpt lat="47.84435" lon="6.85098">
        <ele>776.07596</ele>
        <time>2024-03-25T23:32:11.808Z</time>
      </trkpt>
      <trkpt lat="47.84463" lon="6.85092">
        <ele>770.873769</ele>
        <time>2024-03-25T23:32:48.459Z</time>
      </trkpt>
      <trkpt lat="47.84473" lon="6.85067">
        <ele>767.220301</ele>
        <time>2024-03-25T23:33:10.367Z</time>
      </trkpt>
      <trkpt lat="47.84492" lon="6.84908">
        <ele>758.79597</ele>
        <time>2024-03-25T23:35:11.691Z</time>
      </trkpt>
      <trkpt lat="47.8449" lon="6.84855">
        <ele>756.745459</ele>
        <time>2024-03-25T23:35:49.681Z</time>
      </trkpt>
      <trkpt lat="47.84475" lon="6.84751">
        <ele>751.419181</ele>
        <time>2024-03-25T23:37:06.796Z</time>
      </trkpt>
      <trkpt lat="47.84463" lon="6.84718">
        <ele>748.132151</ele>
        <time>2024-03-25T23:37:37.196Z</time>
      </trkpt>
      <trkpt lat="47.84449" lon="6.84644">
        <ele>741.534374</ele>
        <time>2024-03-25T23:38:40.788Z</time>
      </trkpt>
      <trkpt lat="47.84439" lon="6.84616">
        <ele>738.800885</ele>
        <time>2024-03-25T23:39:07.824Z</time>
      </trkpt>
      <trkpt lat="47.84439" lon="6.84598">
        <ele>737.242762</ele>
        <time>2024-03-25T23:39:23.298Z</time>
      </trkpt>
      <trkpt lat="47.84444" lon="6.84581">
        <ele>735.709631</ele>
        <time>2024-03-25T23:39:41.076Z</time>
      </trkpt>
      <trkpt lat="47.84461" lon="6.8457">
        <ele>733.325573</ele>
        <time>2024-03-25T23:40:04.165Z</time>
      </trkpt>
      <trkpt lat="47.8451" lon="6.84566">
        <ele>724.689372</ele>
        <time>2024-03-25T23:41:15.171Z</time>
      </trkpt>
      <trkpt lat="47.84517" lon="6.84565">
        <ele>723.27579</ele>
        <time>2024-03-25T23:41:27.018Z</time>
      </trkpt>
      <trkpt lat="47.84648" lon="6.84594">
        <ele>695.751726</ele>
        <time>2024-03-25T23:44:49.309Z</time>
      </trkpt>
      <trkpt lat="47.84659" lon="6.8462">
        <ele>691.743241</ele>
        <time>2024-03-25T23:45:21.398Z</time>
      </trkpt>
      <trkpt lat="47.84711" lon="6.84686">
        <ele>679.984899</ele>
        <time>2024-03-25T23:46:54.362Z</time>
      </trkpt>
      <trkpt lat="47.84749" lon="6.84707">
        <ele>672.884033</ele>
        <time>2024-03-25T23:47:51.022Z</time>
      </trkpt>
      <trkpt lat="47.84806" lon="6.84799">
        <ele>658.961166</ele>
        <time>2024-03-25T23:49:37.467Z</time>
      </trkpt>
      <trkpt lat="47.84822" lon="6.84817">
        <ele>655.983357</ele>
        <time>2024-03-25T23:50:02.492Z</time>
      </trkpt>
      <trkpt lat="47.84852" lon="6.84837">
        <ele>650.979929</ele>
        <time>2024-03-25T23:50:45.431Z</time>
      </trkpt>
      <trkpt lat="47.84925" lon="6.84868">
        <ele>639.704517</ele>
        <time>2024-03-25T23:52:24.936Z</time>
      </trkpt>
      <trkpt lat="47.84949" lon="6.84865">
        <ele>636.145779</ele>
        <time>2024-03-25T23:52:55.551Z</time>
      </trkpt>
      <trkpt lat="47.85009" lon="6.84837">
        <ele>629.249367</ele>
        <time>2024-03-25T23:54:13.448Z</time>
      </trkpt>
      <trkpt lat="47.85019" lon="6.84832">
        <ele>628.025883</ele>
        <time>2024-03-25T23:54:27.622Z</time>
      </trkpt>
      <trkpt lat="47.85057" lon="6.84815">
        <ele>623.807558</ele>
        <time>2024-03-25T23:55:15.431Z</time>
      </trkpt>
      <trkpt lat="47.85069" lon="6.84807">
        <ele>622.395605</ele>
        <time>2024-03-25T23:55:31.285Z</time>
      </trkpt>
      <trkpt lat="47.85106" lon="6.84749">
        <ele>616.62465</ele>
        <time>2024-03-25T23:56:35.339Z</time>
      </trkpt>
      <trkpt lat="47.85152" lon="6.84702">
        <ele>614.930346</ele>
        <time>2024-03-25T23:57:36.048Z</time>
      </trkpt>
      <trkpt lat="47.85177" lon="6.8465">
        <ele>613.961915</ele>
        <time>2024-03-25T23:58:20.262Z</time>
      </trkpt>
      <trkpt lat="47.85181" lon="6.84621">
        <ele>613.523798</ele>
        <time>2024-03-25T23:58:39.872Z</time>
      </trkpt>
      <trkpt lat="47.85188" lon="6.84588">
        <ele>612.991761</ele>
        <time>2024-03-25T23:59:03.913Z</time>
      </trkpt>
      <trkpt lat="47.85186" lon="6.84584">
        <ele>612.929097</ele>
        <time>2024-03-25T23:59:06.976Z</time>
      </trkpt>
      <trkpt lat="47.85185" lon="6.84511">
        <ele>611.959839</ele>
        <time>2024-03-25T23:59:56.212Z</time>
      </trkpt>
      <trkpt lat="47.85158" lon="6.84361">
        <ele>611.194506</ele>
        <time>2024-03-26T00:01:42.109Z</time>
      </trkpt>
      <trkpt lat="47.85155" lon="6.84317">
        <ele>610.978624</ele>
        <time>2024-03-26T00:02:11.663Z</time>
      </trkpt>
      <trkpt lat="47.8517" lon="6.84137">
        <ele>606.973405</ele>
        <time>2024-03-26T00:04:22.324Z</time>
      </trkpt>
      <trkpt lat="47.85168" lon="6.84092">
        <ele>605.626552</ele>
        <time>2024-03-26T00:04:55.992Z</time>
      </trkpt>
      <trkpt lat="47.85168" lon="6.84085">
        <ele>605.428012</ele>
        <time>2024-03-26T00:05:00.688Z</time>
      </trkpt>
      <trkpt lat="47.85172" lon="6.84067">
        <ele>604.858043</ele>
        <time>2024-03-26T00:05:15.739Z</time>
      </trkpt>
      <trkpt lat="47.85219" lon="6.83937">
        <ele>600.02911</ele>
        <time>2024-03-26T00:07:05.150Z</time>
      </trkpt>
      <trkpt lat="47.85275" lon="6.83885">
        <ele>596.488799</ele>
        <time>2024-03-26T00:08:19.671Z</time>
      </trkpt>
      <trkpt lat="47.85319" lon="6.838">
        <ele>592.756913</ele>
        <time>2024-03-26T00:09:38.298Z</time>
      </trkpt>
      <trkpt lat="47.8532" lon="6.8379">
        <ele>592.471172</ele>
        <time>2024-03-26T00:09:45.829Z</time>
      </trkpt>
      <trkpt lat="47.85337" lon="6.83683">
        <ele>589.326091</ele>
        <time>2024-03-26T00:11:05.918Z</time>
      </trkpt>
      <trkpt lat="47.85369" lon="6.83639">
        <ele>587.465095</ele>
        <time>2024-03-26T00:11:53.239Z</time>
      </trkpt>
      <trkpt lat="47.85382" lon="6.83559">
        <ele>585.196942</ele>
        <time>2024-03-26T00:12:52.875Z</time>
      </trkpt>
      <trkpt lat="47.8541" lon="6.83507">
        <ele>583.743219</ele>
        <time>2024-03-26T00:13:41.010Z</time>
      </trkpt>
      <trkpt lat="47.85422" lon="6.83488">
        <ele>583.151444</ele>
        <time>2024-03-26T00:14:00.655Z</time>
      </trkpt>
      <trkpt lat="47.85439" lon="6.8348">
        <ele>582.593851</ele>
        <time>2024-03-26T00:14:18.964Z</time>
      </trkpt>
      <trkpt lat="47.85524" lon="6.83401">
        <ele>579.436715</ele>
        <time>2024-03-26T00:16:05.995Z</time>
      </trkpt>
      <trkpt lat="47.85636" lon="6.83251">
        <ele>576.551747</ele>
        <time>2024-03-26T00:18:41.753Z</time>
      </trkpt>
      <trkpt lat="47.85651" lon="6.83234">
        <ele>576.185659</ele>
        <time>2024-03-26T00:19:01.408Z</time>
      </trkpt>
      <trkpt lat="47.85674" lon="6.83201">
        <ele>575.289146</ele>
        <time>2024-03-26T00:19:34.734Z</time>
      </trkpt>
      <trkpt lat="47.85695" lon="6.83171">
        <ele>574.479983</ele>
        <time>2024-03-26T00:20:04.614Z</time>
      </trkpt>
      <trkpt lat="47.85699" lon="6.83173">
        <ele>574.363165</ele>
        <time>2024-03-26T00:20:09.155Z</time>
      </trkpt>
      <trkpt lat="47.8582" lon="6.82863">
        <ele>566.864323</ele>
        <time>2024-03-26T00:24:26.198Z</time>
      </trkpt>
      <trkpt lat="47.85858" lon="6.82767">
        <ele>564.992954</ele>
        <time>2024-03-26T00:25:46.050Z</time>
      </trkpt>
      <trkpt lat="47.85867" lon="6.82741">
        <ele>564.992954</ele>
        <time>2024-03-26T00:26:07.077Z</time>
      </trkpt>
      <trkpt lat="47.85885" lon="6.82688">
        <ele>564.992954</ele>
        <time>2024-03-26T00:26:51.137Z</time>
      </trkpt>
      <trkpt lat="47.85892" lon="6.82669">
        <ele>564.992954</ele>
        <time>2024-03-26T00:27:06.750Z</time>
      </trkpt>
      <trkpt lat="47.85901" lon="6.82604">
        <ele>564.992954</ele>
        <time>2024-03-26T00:27:55.022Z</time>
      </trkpt>
      <trkpt lat="47.85902" lon="6.82565">
        <ele>564.992954</ele>
        <time>2024-03-26T00:28:23.439Z</time>
      </trkpt>
      <trkpt lat="47.85903" lon="6.82534">
        <ele>564.992954</ele>
        <time>2024-03-26T00:28:45.908Z</time>
      </trkpt>
      <trkpt lat="47.85903" lon="6.82534">
        <ele>564.992954</ele>
        <time>2024-03-26T00:28:46.252Z</time>
      </trkpt>
      <trkpt lat="47.85904" lon="6.82498">
        <ele>564.992954</ele>
        <time>2024-03-26T00:29:12.311Z</time>
      </trkpt>
      <trkpt lat="47.85907" lon="6.82458">
        <ele>564.992954</ele>
        <time>2024-03-26T00:29:41.232Z</time>
      </trkpt>
      <trkpt lat="47.85917" lon="6.82422">
        <ele>564.992954</ele>
        <time>2024-03-26T00:30:09.306Z</time>
      </trkpt>
    </trkseg>
  </trk>
</gpx>